<?xml version="1.0" encoding="utf-8"?>
<gpx xmlns:xsi="http://www.w3.org/2001/XMLSchema-instance" xmlns:xsd="http://www.w3.org/2001/XMLSchema" version="1.1" creator="Shapelink.com" xmlns="http://www.topografix.com/GPX/1/1" xmlns:gpxtpx="http://www.garmin.com/xmlschemas/TrackPointExtension/v1">
  <metadata>
    <name>Løping 2.39 km, 2014-06-25</name>
    <desc></desc>
    <author><name>Mikael Blom</name></author> 
    <time>2014-06-25T18:38:49Z</time>
  </metadata>
  <trk>
    <name>Løping 2.39 km, 2014-06-25</name>
    <trkseg>
      <trkpt lat="59.9540299" lon="17.7148912">
        <ele>48.2034</ele>
        <time>2014-06-25T18:38:49Z</time>
      </trkpt>
      <trkpt lat="59.9540049" lon="17.714902">
        <ele>46.2806</ele>
        <time>2014-06-25T18:38:50Z</time>
      </trkpt>
      <trkpt lat="59.9539823" lon="17.714908">
        <ele>46.2806</ele>
        <time>2014-06-25T18:38:51Z</time>
      </trkpt>
      <trkpt lat="59.9539664" lon="17.7149067">
        <ele>47.7225</ele>
        <time>2014-06-25T18:38:52Z</time>
      </trkpt>
      <trkpt lat="59.9539513" lon="17.714893">
        <ele>49.6453</ele>
        <time>2014-06-25T18:38:53Z</time>
      </trkpt>
      <trkpt lat="59.9539295" lon="17.7148875">
        <ele>50.126</ele>
        <time>2014-06-25T18:38:54Z</time>
      </trkpt>
      <trkpt lat="59.9539172" lon="17.7148893">
        <ele>51.5679</ele>
        <time>2014-06-25T18:38:55Z</time>
      </trkpt>
      <trkpt lat="59.9538976" lon="17.7148892">
        <ele>51.5679</ele>
        <time>2014-06-25T18:38:56Z</time>
      </trkpt>
      <trkpt lat="59.9538689" lon="17.7149038">
        <ele>50.6066</ele>
        <time>2014-06-25T18:38:57Z</time>
      </trkpt>
      <trkpt lat="59.9538376" lon="17.7149307">
        <ele>49.1646</ele>
        <time>2014-06-25T18:38:58Z</time>
      </trkpt>
      <trkpt lat="59.9538051" lon="17.7149562">
        <ele>48.684</ele>
        <time>2014-06-25T18:38:59Z</time>
      </trkpt>
      <trkpt lat="59.9537805" lon="17.7149786">
        <ele>48.684</ele>
        <time>2014-06-25T18:39:00Z</time>
      </trkpt>
      <trkpt lat="59.9537571" lon="17.7149994">
        <ele>49.1646</ele>
        <time>2014-06-25T18:39:01Z</time>
      </trkpt>
      <trkpt lat="59.9537241" lon="17.7150181">
        <ele>48.684</ele>
        <time>2014-06-25T18:39:02Z</time>
      </trkpt>
      <trkpt lat="59.9537008" lon="17.7150486">
        <ele>50.126</ele>
        <time>2014-06-25T18:39:03Z</time>
      </trkpt>
      <trkpt lat="59.9536804" lon="17.715085">
        <ele>51.5679</ele>
        <time>2014-06-25T18:39:04Z</time>
      </trkpt>
      <trkpt lat="59.9536515" lon="17.7151208">
        <ele>51.5679</ele>
        <time>2014-06-25T18:39:05Z</time>
      </trkpt>
      <trkpt lat="59.9536173" lon="17.7151535">
        <ele>51.5679</ele>
        <time>2014-06-25T18:39:06Z</time>
      </trkpt>
      <trkpt lat="59.9535843" lon="17.7151805">
        <ele>51.0872</ele>
        <time>2014-06-25T18:39:07Z</time>
      </trkpt>
      <trkpt lat="59.9535545" lon="17.7152092">
        <ele>52.0486</ele>
        <time>2014-06-25T18:39:08Z</time>
      </trkpt>
      <trkpt lat="59.9535241" lon="17.7152523">
        <ele>52.0486</ele>
        <time>2014-06-25T18:39:09Z</time>
      </trkpt>
      <trkpt lat="59.9534967" lon="17.7152903">
        <ele>53.0098</ele>
        <time>2014-06-25T18:39:10Z</time>
      </trkpt>
      <trkpt lat="59.953479" lon="17.7153352">
        <ele>54.4518</ele>
        <time>2014-06-25T18:39:11Z</time>
      </trkpt>
      <trkpt lat="59.9534612" lon="17.7153811">
        <ele>56.8551</ele>
        <time>2014-06-25T18:39:12Z</time>
      </trkpt>
      <trkpt lat="59.9534368" lon="17.7154295">
        <ele>57.8165</ele>
        <time>2014-06-25T18:39:13Z</time>
      </trkpt>
      <trkpt lat="59.9534241" lon="17.7154818">
        <ele>59.7391</ele>
        <time>2014-06-25T18:39:14Z</time>
      </trkpt>
      <trkpt lat="59.9534097" lon="17.7155199">
        <ele>60.2197</ele>
        <time>2014-06-25T18:39:15Z</time>
      </trkpt>
      <trkpt lat="59.9533971" lon="17.7155549">
        <ele>61.6617</ele>
        <time>2014-06-25T18:39:16Z</time>
      </trkpt>
      <trkpt lat="59.9533838" lon="17.7155957">
        <ele>64.0651</ele>
        <time>2014-06-25T18:39:17Z</time>
      </trkpt>
      <trkpt lat="59.9533758" lon="17.7156337">
        <ele>67.4297</ele>
        <time>2014-06-25T18:39:18Z</time>
      </trkpt>
      <trkpt lat="59.9533614" lon="17.7156668">
        <ele>68.8716</ele>
        <time>2014-06-25T18:39:19Z</time>
      </trkpt>
      <trkpt lat="59.9533429" lon="17.7157101">
        <ele>71.7555</ele>
        <time>2014-06-25T18:39:20Z</time>
      </trkpt>
      <trkpt lat="59.953326" lon="17.7157526">
        <ele>73.1976</ele>
        <time>2014-06-25T18:39:21Z</time>
      </trkpt>
      <trkpt lat="59.9532972" lon="17.7157872">
        <ele>72.2362</ele>
        <time>2014-06-25T18:39:22Z</time>
      </trkpt>
      <trkpt lat="59.9532649" lon="17.7158162">
        <ele>71.7555</ele>
        <time>2014-06-25T18:39:23Z</time>
      </trkpt>
      <trkpt lat="59.9532438" lon="17.7158547">
        <ele>72.2362</ele>
        <time>2014-06-25T18:39:24Z</time>
      </trkpt>
      <trkpt lat="59.9532273" lon="17.7158987">
        <ele>73.1976</ele>
        <time>2014-06-25T18:39:25Z</time>
      </trkpt>
      <trkpt lat="59.9532076" lon="17.7159492">
        <ele>75.6008</ele>
        <time>2014-06-25T18:39:26Z</time>
      </trkpt>
      <trkpt lat="59.9531806" lon="17.7159962">
        <ele>76.0814</ele>
        <time>2014-06-25T18:39:27Z</time>
      </trkpt>
      <trkpt lat="59.9531589" lon="17.7160362">
        <ele>74.1588</ele>
        <time>2014-06-25T18:39:28Z</time>
      </trkpt>
      <trkpt lat="59.9531505" lon="17.7160864">
        <ele>75.1202</ele>
        <time>2014-06-25T18:39:29Z</time>
      </trkpt>
      <trkpt lat="59.9531354" lon="17.7161349">
        <ele>74.6395</ele>
        <time>2014-06-25T18:39:30Z</time>
      </trkpt>
      <trkpt lat="59.9531188" lon="17.716192">
        <ele>73.6782</ele>
        <time>2014-06-25T18:39:31Z</time>
      </trkpt>
      <trkpt lat="59.9531094" lon="17.7162469">
        <ele>74.1588</ele>
        <time>2014-06-25T18:39:32Z</time>
      </trkpt>
      <trkpt lat="59.9530895" lon="17.7162893">
        <ele>72.7169</ele>
        <time>2014-06-25T18:39:33Z</time>
      </trkpt>
      <trkpt lat="59.9530745" lon="17.7163288">
        <ele>71.7555</ele>
        <time>2014-06-25T18:39:34Z</time>
      </trkpt>
      <trkpt lat="59.9530667" lon="17.7163832">
        <ele>72.7169</ele>
        <time>2014-06-25T18:39:35Z</time>
      </trkpt>
      <trkpt lat="59.9530465" lon="17.7164381">
        <ele>72.2362</ele>
        <time>2014-06-25T18:39:36Z</time>
      </trkpt>
      <trkpt lat="59.9530242" lon="17.7164841">
        <ele>70.7942</ele>
        <time>2014-06-25T18:39:37Z</time>
      </trkpt>
      <trkpt lat="59.9529968" lon="17.7165184">
        <ele>67.4297</ele>
        <time>2014-06-25T18:39:38Z</time>
      </trkpt>
      <trkpt lat="59.952983" lon="17.716566">
        <ele>65.9877</ele>
        <time>2014-06-25T18:39:39Z</time>
      </trkpt>
      <trkpt lat="59.9529753" lon="17.7166219">
        <ele>64.5457</ele>
        <time>2014-06-25T18:39:40Z</time>
      </trkpt>
      <trkpt lat="59.9529735" lon="17.7166821">
        <ele>63.1036</ele>
        <time>2014-06-25T18:39:41Z</time>
      </trkpt>
      <trkpt lat="59.9529775" lon="17.7167458">
        <ele>63.5844</ele>
        <time>2014-06-25T18:39:42Z</time>
      </trkpt>
      <trkpt lat="59.9529722" lon="17.7168056">
        <ele>63.1036</ele>
        <time>2014-06-25T18:39:43Z</time>
      </trkpt>
      <trkpt lat="59.9529654" lon="17.7168652">
        <ele>62.6229</ele>
        <time>2014-06-25T18:39:44Z</time>
      </trkpt>
      <trkpt lat="59.9529572" lon="17.7169191">
        <ele>61.6617</ele>
        <time>2014-06-25T18:39:45Z</time>
      </trkpt>
      <trkpt lat="59.9529475" lon="17.7169764">
        <ele>60.2197</ele>
        <time>2014-06-25T18:39:46Z</time>
      </trkpt>
      <trkpt lat="59.952934" lon="17.7170225">
        <ele>56.8551</ele>
        <time>2014-06-25T18:39:47Z</time>
      </trkpt>
      <trkpt lat="59.9529264" lon="17.7170731">
        <ele>54.9324</ele>
        <time>2014-06-25T18:39:48Z</time>
      </trkpt>
      <trkpt lat="59.9529214" lon="17.717126">
        <ele>54.9324</ele>
        <time>2014-06-25T18:39:49Z</time>
      </trkpt>
      <trkpt lat="59.95292" lon="17.7171793">
        <ele>56.3745</ele>
        <time>2014-06-25T18:39:50Z</time>
      </trkpt>
      <trkpt lat="59.9529212" lon="17.7172406">
        <ele>58.2971</ele>
        <time>2014-06-25T18:39:51Z</time>
      </trkpt>
      <trkpt lat="59.9529268" lon="17.7173073">
        <ele>62.1423</ele>
        <time>2014-06-25T18:39:52Z</time>
      </trkpt>
      <trkpt lat="59.9529206" lon="17.7173626">
        <ele>63.1036</ele>
        <time>2014-06-25T18:39:53Z</time>
      </trkpt>
      <trkpt lat="59.9529174" lon="17.7174192">
        <ele>65.0264</ele>
        <time>2014-06-25T18:39:54Z</time>
      </trkpt>
      <trkpt lat="59.9529175" lon="17.7174725">
        <ele>67.9103</ele>
        <time>2014-06-25T18:39:55Z</time>
      </trkpt>
      <trkpt lat="59.9529143" lon="17.7175285">
        <ele>69.8329</ele>
        <time>2014-06-25T18:39:56Z</time>
      </trkpt>
      <trkpt lat="59.9529035" lon="17.7175811">
        <ele>71.2749</ele>
        <time>2014-06-25T18:39:57Z</time>
      </trkpt>
      <trkpt lat="59.9528896" lon="17.7176315">
        <ele>72.2362</ele>
        <time>2014-06-25T18:39:58Z</time>
      </trkpt>
      <trkpt lat="59.9528843" lon="17.7176874">
        <ele>74.6395</ele>
        <time>2014-06-25T18:39:59Z</time>
      </trkpt>
      <trkpt lat="59.9528733" lon="17.7177233">
        <ele>76.5621</ele>
        <time>2014-06-25T18:40:00Z</time>
      </trkpt>
      <trkpt lat="59.952861" lon="17.7177736">
        <ele>78.004</ele>
        <time>2014-06-25T18:40:01Z</time>
      </trkpt>
      <trkpt lat="59.9528442" lon="17.7178262">
        <ele>78.9655</ele>
        <time>2014-06-25T18:40:02Z</time>
      </trkpt>
      <trkpt lat="59.9528304" lon="17.7178795">
        <ele>79.446</ele>
        <time>2014-06-25T18:40:03Z</time>
      </trkpt>
      <trkpt lat="59.9528211" lon="17.7179329">
        <ele>80.4075</ele>
        <time>2014-06-25T18:40:04Z</time>
      </trkpt>
      <trkpt lat="59.9528092" lon="17.7179817">
        <ele>81.3688</ele>
        <time>2014-06-25T18:40:05Z</time>
      </trkpt>
      <trkpt lat="59.9527931" lon="17.7180297">
        <ele>81.8494</ele>
        <time>2014-06-25T18:40:06Z</time>
      </trkpt>
      <trkpt lat="59.952774" lon="17.7180692">
        <ele>81.3688</ele>
        <time>2014-06-25T18:40:07Z</time>
      </trkpt>
      <trkpt lat="59.9527543" lon="17.7181108">
        <ele>79.9266</ele>
        <time>2014-06-25T18:40:08Z</time>
      </trkpt>
      <trkpt lat="59.9527289" lon="17.7181418">
        <ele>76.5621</ele>
        <time>2014-06-25T18:40:09Z</time>
      </trkpt>
      <trkpt lat="59.9527066" lon="17.7181874">
        <ele>75.6008</ele>
        <time>2014-06-25T18:40:10Z</time>
      </trkpt>
      <trkpt lat="59.9526761" lon="17.7182211">
        <ele>72.2362</ele>
        <time>2014-06-25T18:40:11Z</time>
      </trkpt>
      <trkpt lat="59.9526601" lon="17.7182692">
        <ele>70.7942</ele>
        <time>2014-06-25T18:40:12Z</time>
      </trkpt>
      <trkpt lat="59.9526497" lon="17.7183242">
        <ele>70.7942</ele>
        <time>2014-06-25T18:40:13Z</time>
      </trkpt>
      <trkpt lat="59.95263" lon="17.7183676">
        <ele>69.8329</ele>
        <time>2014-06-25T18:40:14Z</time>
      </trkpt>
      <trkpt lat="59.9526226" lon="17.7184184">
        <ele>69.8329</ele>
        <time>2014-06-25T18:40:15Z</time>
      </trkpt>
      <trkpt lat="59.952602" lon="17.7184535">
        <ele>66.4683</ele>
        <time>2014-06-25T18:40:16Z</time>
      </trkpt>
      <trkpt lat="59.9525788" lon="17.7184966">
        <ele>64.0651</ele>
        <time>2014-06-25T18:40:17Z</time>
      </trkpt>
      <trkpt lat="59.9525663" lon="17.7185437">
        <ele>63.5844</ele>
        <time>2014-06-25T18:40:18Z</time>
      </trkpt>
      <trkpt lat="59.9525475" lon="17.7185914">
        <ele>61.6617</ele>
        <time>2014-06-25T18:40:19Z</time>
      </trkpt>
      <trkpt lat="59.9525267" lon="17.7186457">
        <ele>60.7003</ele>
        <time>2014-06-25T18:40:20Z</time>
      </trkpt>
      <trkpt lat="59.9525117" lon="17.7186915">
        <ele>61.6617</ele>
        <time>2014-06-25T18:40:21Z</time>
      </trkpt>
      <trkpt lat="59.9525031" lon="17.7187373">
        <ele>62.1423</ele>
        <time>2014-06-25T18:40:22Z</time>
      </trkpt>
      <trkpt lat="59.9524953" lon="17.7187924">
        <ele>63.1036</ele>
        <time>2014-06-25T18:40:23Z</time>
      </trkpt>
      <trkpt lat="59.9524878" lon="17.7188485">
        <ele>64.0651</ele>
        <time>2014-06-25T18:40:24Z</time>
      </trkpt>
      <trkpt lat="59.9524768" lon="17.7189044">
        <ele>65.5071</ele>
        <time>2014-06-25T18:40:25Z</time>
      </trkpt>
      <trkpt lat="59.9524622" lon="17.7189643">
        <ele>66.4683</ele>
        <time>2014-06-25T18:40:26Z</time>
      </trkpt>
      <trkpt lat="59.9524538" lon="17.7190312">
        <ele>68.3909</ele>
        <time>2014-06-25T18:40:27Z</time>
      </trkpt>
      <trkpt lat="59.9524456" lon="17.7190789">
        <ele>68.3909</ele>
        <time>2014-06-25T18:40:28Z</time>
      </trkpt>
      <trkpt lat="59.9524518" lon="17.7191325">
        <ele>71.2749</ele>
        <time>2014-06-25T18:40:29Z</time>
      </trkpt>
      <trkpt lat="59.9524486" lon="17.7192056">
        <ele>74.6395</ele>
        <time>2014-06-25T18:40:30Z</time>
      </trkpt>
      <trkpt lat="59.9524487" lon="17.7192758">
        <ele>77.5234</ele>
        <time>2014-06-25T18:40:31Z</time>
      </trkpt>
      <trkpt lat="59.9524386" lon="17.7193415">
        <ele>78.004</ele>
        <time>2014-06-25T18:40:32Z</time>
      </trkpt>
      <trkpt lat="59.9524258" lon="17.7193942">
        <ele>76.0814</ele>
        <time>2014-06-25T18:40:33Z</time>
      </trkpt>
      <trkpt lat="59.952416" lon="17.7194425">
        <ele>73.1976</ele>
        <time>2014-06-25T18:40:34Z</time>
      </trkpt>
      <trkpt lat="59.9524127" lon="17.7195009">
        <ele>72.2362</ele>
        <time>2014-06-25T18:40:35Z</time>
      </trkpt>
      <trkpt lat="59.9524057" lon="17.719547">
        <ele>72.2362</ele>
        <time>2014-06-25T18:40:36Z</time>
      </trkpt>
      <trkpt lat="59.9523887" lon="17.7195736">
        <ele>69.8329</ele>
        <time>2014-06-25T18:40:37Z</time>
      </trkpt>
      <trkpt lat="59.9523923" lon="17.719617">
        <ele>68.8716</ele>
        <time>2014-06-25T18:40:38Z</time>
      </trkpt>
      <trkpt lat="59.9524008" lon="17.7196627">
        <ele>69.3523</ele>
        <time>2014-06-25T18:40:39Z</time>
      </trkpt>
      <trkpt lat="59.9524117" lon="17.7197093">
        <ele>67.4297</ele>
        <time>2014-06-25T18:40:40Z</time>
      </trkpt>
      <trkpt lat="59.9524262" lon="17.7197617">
        <ele>65.0264</ele>
        <time>2014-06-25T18:40:41Z</time>
      </trkpt>
      <trkpt lat="59.9524398" lon="17.7198133">
        <ele>64.0651</ele>
        <time>2014-06-25T18:40:42Z</time>
      </trkpt>
      <trkpt lat="59.9524617" lon="17.7198667">
        <ele>63.5844</ele>
        <time>2014-06-25T18:40:43Z</time>
      </trkpt>
      <trkpt lat="59.9524901" lon="17.7199315">
        <ele>65.0264</ele>
        <time>2014-06-25T18:40:44Z</time>
      </trkpt>
      <trkpt lat="59.9525118" lon="17.719987">
        <ele>65.9877</ele>
        <time>2014-06-25T18:40:45Z</time>
      </trkpt>
      <trkpt lat="59.95253" lon="17.7200548">
        <ele>66.4683</ele>
        <time>2014-06-25T18:40:46Z</time>
      </trkpt>
      <trkpt lat="59.9525407" lon="17.7201175">
        <ele>67.4297</ele>
        <time>2014-06-25T18:40:47Z</time>
      </trkpt>
      <trkpt lat="59.9525491" lon="17.7201744">
        <ele>67.4297</ele>
        <time>2014-06-25T18:40:48Z</time>
      </trkpt>
      <trkpt lat="59.9525511" lon="17.7202248">
        <ele>66.949</ele>
        <time>2014-06-25T18:40:49Z</time>
      </trkpt>
      <trkpt lat="59.9525496" lon="17.7202749">
        <ele>65.9877</ele>
        <time>2014-06-25T18:40:50Z</time>
      </trkpt>
      <trkpt lat="59.9525464" lon="17.7203256">
        <ele>64.5457</ele>
        <time>2014-06-25T18:40:51Z</time>
      </trkpt>
      <trkpt lat="59.9525472" lon="17.72038">
        <ele>65.0264</ele>
        <time>2014-06-25T18:40:52Z</time>
      </trkpt>
      <trkpt lat="59.9525475" lon="17.7204294">
        <ele>65.5071</ele>
        <time>2014-06-25T18:40:53Z</time>
      </trkpt>
      <trkpt lat="59.9525383" lon="17.7204821">
        <ele>65.0264</ele>
        <time>2014-06-25T18:40:54Z</time>
      </trkpt>
      <trkpt lat="59.9525311" lon="17.7205345">
        <ele>63.5844</ele>
        <time>2014-06-25T18:40:55Z</time>
      </trkpt>
      <trkpt lat="59.9525286" lon="17.7205918">
        <ele>63.1036</ele>
        <time>2014-06-25T18:40:56Z</time>
      </trkpt>
      <trkpt lat="59.9525283" lon="17.7206506">
        <ele>63.5844</ele>
        <time>2014-06-25T18:40:57Z</time>
      </trkpt>
      <trkpt lat="59.9525247" lon="17.720704">
        <ele>63.5844</ele>
        <time>2014-06-25T18:40:58Z</time>
      </trkpt>
      <trkpt lat="59.9525191" lon="17.720756">
        <ele>63.1036</ele>
        <time>2014-06-25T18:40:59Z</time>
      </trkpt>
      <trkpt lat="59.95252" lon="17.7208071">
        <ele>64.5457</ele>
        <time>2014-06-25T18:41:00Z</time>
      </trkpt>
      <trkpt lat="59.9525279" lon="17.720871">
        <ele>65.0264</ele>
        <time>2014-06-25T18:41:01Z</time>
      </trkpt>
      <trkpt lat="59.9525262" lon="17.7209272">
        <ele>64.0651</ele>
        <time>2014-06-25T18:41:02Z</time>
      </trkpt>
      <trkpt lat="59.9525207" lon="17.7209784">
        <ele>63.1036</ele>
        <time>2014-06-25T18:41:03Z</time>
      </trkpt>
      <trkpt lat="59.9525165" lon="17.7210348">
        <ele>61.6617</ele>
        <time>2014-06-25T18:41:04Z</time>
      </trkpt>
      <trkpt lat="59.9525113" lon="17.7210913">
        <ele>60.2197</ele>
        <time>2014-06-25T18:41:05Z</time>
      </trkpt>
      <trkpt lat="59.9525052" lon="17.7211427">
        <ele>58.7777</ele>
        <time>2014-06-25T18:41:06Z</time>
      </trkpt>
      <trkpt lat="59.9524994" lon="17.7211995">
        <ele>57.3358</ele>
        <time>2014-06-25T18:41:07Z</time>
      </trkpt>
      <trkpt lat="59.9524915" lon="17.7212557">
        <ele>56.3745</ele>
        <time>2014-06-25T18:41:08Z</time>
      </trkpt>
      <trkpt lat="59.9524861" lon="17.7213088">
        <ele>55.8938</ele>
        <time>2014-06-25T18:41:09Z</time>
      </trkpt>
      <trkpt lat="59.9524812" lon="17.7213649">
        <ele>53.9712</ele>
        <time>2014-06-25T18:41:10Z</time>
      </trkpt>
      <trkpt lat="59.9524817" lon="17.7214185">
        <ele>53.0098</ele>
        <time>2014-06-25T18:41:11Z</time>
      </trkpt>
      <trkpt lat="59.9524854" lon="17.7214628">
        <ele>52.5292</ele>
        <time>2014-06-25T18:41:12Z</time>
      </trkpt>
      <trkpt lat="59.9524918" lon="17.7215126">
        <ele>52.5292</ele>
        <time>2014-06-25T18:41:13Z</time>
      </trkpt>
      <trkpt lat="59.9525103" lon="17.7215768">
        <ele>54.4518</ele>
        <time>2014-06-25T18:41:14Z</time>
      </trkpt>
      <trkpt lat="59.9525227" lon="17.7216405">
        <ele>54.4518</ele>
        <time>2014-06-25T18:41:15Z</time>
      </trkpt>
      <trkpt lat="59.9525233" lon="17.7217016">
        <ele>54.9324</ele>
        <time>2014-06-25T18:41:16Z</time>
      </trkpt>
      <trkpt lat="59.9525379" lon="17.7217721">
        <ele>55.8938</ele>
        <time>2014-06-25T18:41:17Z</time>
      </trkpt>
      <trkpt lat="59.9525573" lon="17.7218377">
        <ele>58.2971</ele>
        <time>2014-06-25T18:41:18Z</time>
      </trkpt>
      <trkpt lat="59.9525684" lon="17.7218988">
        <ele>59.7391</ele>
        <time>2014-06-25T18:41:19Z</time>
      </trkpt>
      <trkpt lat="59.952573" lon="17.7219641">
        <ele>61.6617</ele>
        <time>2014-06-25T18:41:20Z</time>
      </trkpt>
      <trkpt lat="59.9525808" lon="17.7220339">
        <ele>64.0651</ele>
        <time>2014-06-25T18:41:21Z</time>
      </trkpt>
      <trkpt lat="59.9525873" lon="17.7221024">
        <ele>66.949</ele>
        <time>2014-06-25T18:41:22Z</time>
      </trkpt>
      <trkpt lat="59.9525911" lon="17.722173">
        <ele>68.8716</ele>
        <time>2014-06-25T18:41:23Z</time>
      </trkpt>
      <trkpt lat="59.9525925" lon="17.7222362">
        <ele>70.7942</ele>
        <time>2014-06-25T18:41:24Z</time>
      </trkpt>
      <trkpt lat="59.9525911" lon="17.722294">
        <ele>71.7555</ele>
        <time>2014-06-25T18:41:25Z</time>
      </trkpt>
      <trkpt lat="59.9525869" lon="17.7223562">
        <ele>73.1976</ele>
        <time>2014-06-25T18:41:26Z</time>
      </trkpt>
      <trkpt lat="59.9525757" lon="17.722411">
        <ele>73.1976</ele>
        <time>2014-06-25T18:41:27Z</time>
      </trkpt>
      <trkpt lat="59.9525709" lon="17.7224716">
        <ele>73.6782</ele>
        <time>2014-06-25T18:41:28Z</time>
      </trkpt>
      <trkpt lat="59.9525583" lon="17.7225295">
        <ele>73.6782</ele>
        <time>2014-06-25T18:41:29Z</time>
      </trkpt>
      <trkpt lat="59.952549" lon="17.7225883">
        <ele>74.6395</ele>
        <time>2014-06-25T18:41:30Z</time>
      </trkpt>
      <trkpt lat="59.9525295" lon="17.7226396">
        <ele>73.1976</ele>
        <time>2014-06-25T18:41:31Z</time>
      </trkpt>
      <trkpt lat="59.9525164" lon="17.7226846">
        <ele>71.7555</ele>
        <time>2014-06-25T18:41:32Z</time>
      </trkpt>
      <trkpt lat="59.9525025" lon="17.7227343">
        <ele>69.8329</ele>
        <time>2014-06-25T18:41:33Z</time>
      </trkpt>
      <trkpt lat="59.9524792" lon="17.722768">
        <ele>65.5071</ele>
        <time>2014-06-25T18:41:34Z</time>
      </trkpt>
      <trkpt lat="59.9524616" lon="17.7228128">
        <ele>62.6229</ele>
        <time>2014-06-25T18:41:35Z</time>
      </trkpt>
      <trkpt lat="59.9524536" lon="17.7228658">
        <ele>60.7003</ele>
        <time>2014-06-25T18:41:36Z</time>
      </trkpt>
      <trkpt lat="59.9524444" lon="17.7229121">
        <ele>59.7391</ele>
        <time>2014-06-25T18:41:37Z</time>
      </trkpt>
      <trkpt lat="59.9524414" lon="17.7229614">
        <ele>58.7777</ele>
        <time>2014-06-25T18:41:38Z</time>
      </trkpt>
      <trkpt lat="59.9524377" lon="17.7230055">
        <ele>57.3358</ele>
        <time>2014-06-25T18:41:39Z</time>
      </trkpt>
      <trkpt lat="59.9524383" lon="17.7230515">
        <ele>56.3745</ele>
        <time>2014-06-25T18:41:40Z</time>
      </trkpt>
      <trkpt lat="59.9524431" lon="17.7230985">
        <ele>54.9324</ele>
        <time>2014-06-25T18:41:41Z</time>
      </trkpt>
      <trkpt lat="59.9524534" lon="17.7231529">
        <ele>53.4905</ele>
        <time>2014-06-25T18:41:42Z</time>
      </trkpt>
      <trkpt lat="59.9524626" lon="17.7232038">
        <ele>53.4905</ele>
        <time>2014-06-25T18:41:43Z</time>
      </trkpt>
      <trkpt lat="59.9524632" lon="17.7232495">
        <ele>53.0098</ele>
        <time>2014-06-25T18:41:44Z</time>
      </trkpt>
      <trkpt lat="59.9524688" lon="17.7232963">
        <ele>52.0486</ele>
        <time>2014-06-25T18:41:45Z</time>
      </trkpt>
      <trkpt lat="59.9524796" lon="17.7233498">
        <ele>53.0098</ele>
        <time>2014-06-25T18:41:46Z</time>
      </trkpt>
      <trkpt lat="59.9524902" lon="17.7234043">
        <ele>53.4905</ele>
        <time>2014-06-25T18:41:47Z</time>
      </trkpt>
      <trkpt lat="59.9524987" lon="17.7234561">
        <ele>52.5292</ele>
        <time>2014-06-25T18:41:48Z</time>
      </trkpt>
      <trkpt lat="59.952512" lon="17.7235044">
        <ele>52.0486</ele>
        <time>2014-06-25T18:41:49Z</time>
      </trkpt>
      <trkpt lat="59.9525264" lon="17.7235483">
        <ele>51.0872</ele>
        <time>2014-06-25T18:41:50Z</time>
      </trkpt>
      <trkpt lat="59.9525419" lon="17.7235969">
        <ele>50.6066</ele>
        <time>2014-06-25T18:41:51Z</time>
      </trkpt>
      <trkpt lat="59.9525663" lon="17.7236419">
        <ele>51.0872</ele>
        <time>2014-06-25T18:41:52Z</time>
      </trkpt>
      <trkpt lat="59.9525938" lon="17.7236903">
        <ele>53.0098</ele>
        <time>2014-06-25T18:41:53Z</time>
      </trkpt>
      <trkpt lat="59.952603" lon="17.7237409">
        <ele>51.5679</ele>
        <time>2014-06-25T18:41:54Z</time>
      </trkpt>
      <trkpt lat="59.9526118" lon="17.7237979">
        <ele>51.5679</ele>
        <time>2014-06-25T18:41:55Z</time>
      </trkpt>
      <trkpt lat="59.9526243" lon="17.7238564">
        <ele>52.0486</ele>
        <time>2014-06-25T18:41:56Z</time>
      </trkpt>
      <trkpt lat="59.9526355" lon="17.7239124">
        <ele>52.5292</ele>
        <time>2014-06-25T18:41:57Z</time>
      </trkpt>
      <trkpt lat="59.9526413" lon="17.7239679">
        <ele>53.0098</ele>
        <time>2014-06-25T18:41:58Z</time>
      </trkpt>
      <trkpt lat="59.9526449" lon="17.7240228">
        <ele>54.9324</ele>
        <time>2014-06-25T18:41:59Z</time>
      </trkpt>
      <trkpt lat="59.9526375" lon="17.7240746">
        <ele>54.9324</ele>
        <time>2014-06-25T18:42:00Z</time>
      </trkpt>
      <trkpt lat="59.9526275" lon="17.7241288">
        <ele>55.4131</ele>
        <time>2014-06-25T18:42:01Z</time>
      </trkpt>
      <trkpt lat="59.952621" lon="17.7241858">
        <ele>56.8551</ele>
        <time>2014-06-25T18:42:02Z</time>
      </trkpt>
      <trkpt lat="59.9526075" lon="17.7242394">
        <ele>57.8165</ele>
        <time>2014-06-25T18:42:03Z</time>
      </trkpt>
      <trkpt lat="59.9525949" lon="17.7242911">
        <ele>58.7777</ele>
        <time>2014-06-25T18:42:04Z</time>
      </trkpt>
      <trkpt lat="59.9525793" lon="17.7243401">
        <ele>58.2971</ele>
        <time>2014-06-25T18:42:05Z</time>
      </trkpt>
      <trkpt lat="59.9525648" lon="17.7243845">
        <ele>58.7777</ele>
        <time>2014-06-25T18:42:06Z</time>
      </trkpt>
      <trkpt lat="59.9525467" lon="17.7244242">
        <ele>58.7777</ele>
        <time>2014-06-25T18:42:07Z</time>
      </trkpt>
      <trkpt lat="59.9525288" lon="17.7244613">
        <ele>57.3358</ele>
        <time>2014-06-25T18:42:08Z</time>
      </trkpt>
      <trkpt lat="59.9525175" lon="17.72451">
        <ele>57.8165</ele>
        <time>2014-06-25T18:42:09Z</time>
      </trkpt>
      <trkpt lat="59.952501" lon="17.7245608">
        <ele>56.3745</ele>
        <time>2014-06-25T18:42:10Z</time>
      </trkpt>
      <trkpt lat="59.9524936" lon="17.7246086">
        <ele>57.3358</ele>
        <time>2014-06-25T18:42:11Z</time>
      </trkpt>
      <trkpt lat="59.9524834" lon="17.7246392">
        <ele>56.8551</ele>
        <time>2014-06-25T18:42:12Z</time>
      </trkpt>
      <trkpt lat="59.9524685" lon="17.7246656">
        <ele>55.4131</ele>
        <time>2014-06-25T18:42:13Z</time>
      </trkpt>
      <trkpt lat="59.9524461" lon="17.7246991">
        <ele>54.4518</ele>
        <time>2014-06-25T18:42:14Z</time>
      </trkpt>
      <trkpt lat="59.9524247" lon="17.7247278">
        <ele>53.9712</ele>
        <time>2014-06-25T18:42:15Z</time>
      </trkpt>
      <trkpt lat="59.952406" lon="17.7247568">
        <ele>53.0098</ele>
        <time>2014-06-25T18:42:16Z</time>
      </trkpt>
      <trkpt lat="59.952379" lon="17.7247837">
        <ele>50.6066</ele>
        <time>2014-06-25T18:42:17Z</time>
      </trkpt>
      <trkpt lat="59.9523601" lon="17.7248229">
        <ele>50.6066</ele>
        <time>2014-06-25T18:42:18Z</time>
      </trkpt>
      <trkpt lat="59.9523389" lon="17.7248655">
        <ele>50.6066</ele>
        <time>2014-06-25T18:42:19Z</time>
      </trkpt>
      <trkpt lat="59.9523222" lon="17.7249112">
        <ele>51.5679</ele>
        <time>2014-06-25T18:42:20Z</time>
      </trkpt>
      <trkpt lat="59.9522993" lon="17.7249543">
        <ele>51.0872</ele>
        <time>2014-06-25T18:42:21Z</time>
      </trkpt>
      <trkpt lat="59.9522739" lon="17.7249894">
        <ele>50.126</ele>
        <time>2014-06-25T18:42:22Z</time>
      </trkpt>
      <trkpt lat="59.9522472" lon="17.7250255">
        <ele>48.684</ele>
        <time>2014-06-25T18:42:23Z</time>
      </trkpt>
      <trkpt lat="59.9522212" lon="17.7250635">
        <ele>47.7225</ele>
        <time>2014-06-25T18:42:24Z</time>
      </trkpt>
      <trkpt lat="59.9521968" lon="17.7251018">
        <ele>46.7612</ele>
        <time>2014-06-25T18:42:25Z</time>
      </trkpt>
      <trkpt lat="59.9521695" lon="17.7251415">
        <ele>46.2806</ele>
        <time>2014-06-25T18:42:26Z</time>
      </trkpt>
      <trkpt lat="59.9521501" lon="17.7251834">
        <ele>46.7612</ele>
        <time>2014-06-25T18:42:27Z</time>
      </trkpt>
      <trkpt lat="59.9521285" lon="17.7252256">
        <ele>46.7612</ele>
        <time>2014-06-25T18:42:28Z</time>
      </trkpt>
      <trkpt lat="59.9521074" lon="17.7252717">
        <ele>46.2806</ele>
        <time>2014-06-25T18:42:29Z</time>
      </trkpt>
      <trkpt lat="59.9520893" lon="17.7253199">
        <ele>46.7612</ele>
        <time>2014-06-25T18:42:30Z</time>
      </trkpt>
      <trkpt lat="59.9520752" lon="17.7253738">
        <ele>48.684</ele>
        <time>2014-06-25T18:42:31Z</time>
      </trkpt>
      <trkpt lat="59.9520545" lon="17.725411">
        <ele>47.7225</ele>
        <time>2014-06-25T18:42:32Z</time>
      </trkpt>
      <trkpt lat="59.9520389" lon="17.7254499">
        <ele>47.7225</ele>
        <time>2014-06-25T18:42:33Z</time>
      </trkpt>
      <trkpt lat="59.952023" lon="17.7254944">
        <ele>47.2418</ele>
        <time>2014-06-25T18:42:34Z</time>
      </trkpt>
      <trkpt lat="59.9520047" lon="17.7255343">
        <ele>46.2806</ele>
        <time>2014-06-25T18:42:35Z</time>
      </trkpt>
      <trkpt lat="59.9519887" lon="17.7255695">
        <ele>45.7999</ele>
        <time>2014-06-25T18:42:36Z</time>
      </trkpt>
      <trkpt lat="59.9519757" lon="17.7256124">
        <ele>44.8386</ele>
        <time>2014-06-25T18:42:37Z</time>
      </trkpt>
      <trkpt lat="59.9519643" lon="17.7256571">
        <ele>43.8773</ele>
        <time>2014-06-25T18:42:38Z</time>
      </trkpt>
      <trkpt lat="59.9519518" lon="17.7256996">
        <ele>43.8773</ele>
        <time>2014-06-25T18:42:39Z</time>
      </trkpt>
      <trkpt lat="59.9519406" lon="17.725739">
        <ele>43.8773</ele>
        <time>2014-06-25T18:42:40Z</time>
      </trkpt>
      <trkpt lat="59.9519279" lon="17.7257773">
        <ele>42.916</ele>
        <time>2014-06-25T18:42:41Z</time>
      </trkpt>
      <trkpt lat="59.9519136" lon="17.7258152">
        <ele>42.916</ele>
        <time>2014-06-25T18:42:42Z</time>
      </trkpt>
      <trkpt lat="59.9519015" lon="17.7258513">
        <ele>42.916</ele>
        <time>2014-06-25T18:42:43Z</time>
      </trkpt>
      <trkpt lat="59.951883" lon="17.7258845">
        <ele>42.916</ele>
        <time>2014-06-25T18:42:44Z</time>
      </trkpt>
      <trkpt lat="59.9518598" lon="17.7259024">
        <ele>42.916</ele>
        <time>2014-06-25T18:42:45Z</time>
      </trkpt>
      <trkpt lat="59.9518352" lon="17.7259244">
        <ele>42.916</ele>
        <time>2014-06-25T18:42:46Z</time>
      </trkpt>
      <trkpt lat="59.9518098" lon="17.7259539">
        <ele>42.916</ele>
        <time>2014-06-25T18:42:47Z</time>
      </trkpt>
      <trkpt lat="59.9517877" lon="17.7259799">
        <ele>42.916</ele>
        <time>2014-06-25T18:42:48Z</time>
      </trkpt>
      <trkpt lat="59.9517701" lon="17.7260073">
        <ele>42.4354</ele>
        <time>2014-06-25T18:42:49Z</time>
      </trkpt>
      <trkpt lat="59.9517488" lon="17.7260429">
        <ele>42.4354</ele>
        <time>2014-06-25T18:42:50Z</time>
      </trkpt>
      <trkpt lat="59.9517258" lon="17.7260782">
        <ele>42.4354</ele>
        <time>2014-06-25T18:42:51Z</time>
      </trkpt>
      <trkpt lat="59.9517033" lon="17.7261166">
        <ele>42.4354</ele>
        <time>2014-06-25T18:42:52Z</time>
      </trkpt>
      <trkpt lat="59.951684" lon="17.7261584">
        <ele>41.9547</ele>
        <time>2014-06-25T18:42:53Z</time>
      </trkpt>
      <trkpt lat="59.951666" lon="17.7262003">
        <ele>41.9547</ele>
        <time>2014-06-25T18:42:54Z</time>
      </trkpt>
      <trkpt lat="59.951649" lon="17.7262456">
        <ele>41.9547</ele>
        <time>2014-06-25T18:42:55Z</time>
      </trkpt>
      <trkpt lat="59.9516321" lon="17.7262863">
        <ele>41.9547</ele>
        <time>2014-06-25T18:42:56Z</time>
      </trkpt>
      <trkpt lat="59.9516169" lon="17.7263223">
        <ele>41.474</ele>
        <time>2014-06-25T18:42:57Z</time>
      </trkpt>
      <trkpt lat="59.9516007" lon="17.7263664">
        <ele>41.9547</ele>
        <time>2014-06-25T18:42:58Z</time>
      </trkpt>
      <trkpt lat="59.9515863" lon="17.7264145">
        <ele>41.9547</ele>
        <time>2014-06-25T18:42:59Z</time>
      </trkpt>
      <trkpt lat="59.951571" lon="17.7264604">
        <ele>42.4354</ele>
        <time>2014-06-25T18:43:00Z</time>
      </trkpt>
      <trkpt lat="59.9515509" lon="17.7265047">
        <ele>42.916</ele>
        <time>2014-06-25T18:43:01Z</time>
      </trkpt>
      <trkpt lat="59.9515333" lon="17.7265446">
        <ele>44.358</ele>
        <time>2014-06-25T18:43:02Z</time>
      </trkpt>
      <trkpt lat="59.9515142" lon="17.7265884">
        <ele>44.8386</ele>
        <time>2014-06-25T18:43:03Z</time>
      </trkpt>
      <trkpt lat="59.951497" lon="17.7266345">
        <ele>45.3192</ele>
        <time>2014-06-25T18:43:04Z</time>
      </trkpt>
      <trkpt lat="59.951482" lon="17.7266821">
        <ele>46.2806</ele>
        <time>2014-06-25T18:43:05Z</time>
      </trkpt>
      <trkpt lat="59.9514659" lon="17.7267356">
        <ele>47.2418</ele>
        <time>2014-06-25T18:43:06Z</time>
      </trkpt>
      <trkpt lat="59.9514572" lon="17.7267815">
        <ele>47.2418</ele>
        <time>2014-06-25T18:43:07Z</time>
      </trkpt>
      <trkpt lat="59.9514557" lon="17.7268217">
        <ele>47.2418</ele>
        <time>2014-06-25T18:43:08Z</time>
      </trkpt>
      <trkpt lat="59.9514585" lon="17.7268718">
        <ele>48.2034</ele>
        <time>2014-06-25T18:43:09Z</time>
      </trkpt>
      <trkpt lat="59.9514612" lon="17.7269278">
        <ele>48.684</ele>
        <time>2014-06-25T18:43:10Z</time>
      </trkpt>
      <trkpt lat="59.9514658" lon="17.726981">
        <ele>49.1646</ele>
        <time>2014-06-25T18:43:11Z</time>
      </trkpt>
      <trkpt lat="59.9514701" lon="17.7270245">
        <ele>49.6453</ele>
        <time>2014-06-25T18:43:12Z</time>
      </trkpt>
      <trkpt lat="59.9514748" lon="17.7270744">
        <ele>50.6066</ele>
        <time>2014-06-25T18:43:13Z</time>
      </trkpt>
      <trkpt lat="59.9514795" lon="17.7271231">
        <ele>51.0872</ele>
        <time>2014-06-25T18:43:14Z</time>
      </trkpt>
      <trkpt lat="59.9514858" lon="17.7271712">
        <ele>51.0872</ele>
        <time>2014-06-25T18:43:15Z</time>
      </trkpt>
      <trkpt lat="59.951485" lon="17.7272194">
        <ele>51.0872</ele>
        <time>2014-06-25T18:43:16Z</time>
      </trkpt>
      <trkpt lat="59.9514796" lon="17.7272717">
        <ele>50.126</ele>
        <time>2014-06-25T18:43:17Z</time>
      </trkpt>
      <trkpt lat="59.9514736" lon="17.7273261">
        <ele>49.1646</ele>
        <time>2014-06-25T18:43:18Z</time>
      </trkpt>
      <trkpt lat="59.9514677" lon="17.7273727">
        <ele>48.684</ele>
        <time>2014-06-25T18:43:19Z</time>
      </trkpt>
      <trkpt lat="59.9514655" lon="17.727424">
        <ele>48.684</ele>
        <time>2014-06-25T18:43:20Z</time>
      </trkpt>
      <trkpt lat="59.9514665" lon="17.7274777">
        <ele>48.2034</ele>
        <time>2014-06-25T18:43:21Z</time>
      </trkpt>
      <trkpt lat="59.9514701" lon="17.7275339">
        <ele>48.684</ele>
        <time>2014-06-25T18:43:22Z</time>
      </trkpt>
      <trkpt lat="59.9514775" lon="17.727596">
        <ele>48.684</ele>
        <time>2014-06-25T18:43:23Z</time>
      </trkpt>
      <trkpt lat="59.9514872" lon="17.7276561">
        <ele>49.1646</ele>
        <time>2014-06-25T18:43:24Z</time>
      </trkpt>
      <trkpt lat="59.9514967" lon="17.7277105">
        <ele>49.1646</ele>
        <time>2014-06-25T18:43:25Z</time>
      </trkpt>
      <trkpt lat="59.9515138" lon="17.7277634">
        <ele>49.1646</ele>
        <time>2014-06-25T18:43:26Z</time>
      </trkpt>
      <trkpt lat="59.9515339" lon="17.7278147">
        <ele>49.6453</ele>
        <time>2014-06-25T18:43:27Z</time>
      </trkpt>
      <trkpt lat="59.951558" lon="17.7278541">
        <ele>50.6066</ele>
        <time>2014-06-25T18:43:28Z</time>
      </trkpt>
      <trkpt lat="59.9515789" lon="17.727885">
        <ele>50.126</ele>
        <time>2014-06-25T18:43:29Z</time>
      </trkpt>
      <trkpt lat="59.9516002" lon="17.7279142">
        <ele>49.6453</ele>
        <time>2014-06-25T18:43:30Z</time>
      </trkpt>
      <trkpt lat="59.9516207" lon="17.7279304">
        <ele>48.2034</ele>
        <time>2014-06-25T18:43:31Z</time>
      </trkpt>
      <trkpt lat="59.9516428" lon="17.7279461">
        <ele>47.7225</ele>
        <time>2014-06-25T18:43:32Z</time>
      </trkpt>
      <trkpt lat="59.9516649" lon="17.7279582">
        <ele>47.2418</ele>
        <time>2014-06-25T18:43:33Z</time>
      </trkpt>
      <trkpt lat="59.9516927" lon="17.7279612">
        <ele>47.2418</ele>
        <time>2014-06-25T18:43:34Z</time>
      </trkpt>
      <trkpt lat="59.9517183" lon="17.7279541">
        <ele>46.2806</ele>
        <time>2014-06-25T18:43:35Z</time>
      </trkpt>
      <trkpt lat="59.9517486" lon="17.7279415">
        <ele>45.7999</ele>
        <time>2014-06-25T18:43:36Z</time>
      </trkpt>
      <trkpt lat="59.9517762" lon="17.7279207">
        <ele>44.8386</ele>
        <time>2014-06-25T18:43:37Z</time>
      </trkpt>
      <trkpt lat="59.9518084" lon="17.7279067">
        <ele>45.7999</ele>
        <time>2014-06-25T18:43:38Z</time>
      </trkpt>
      <trkpt lat="59.951837" lon="17.7278857">
        <ele>45.7999</ele>
        <time>2014-06-25T18:43:39Z</time>
      </trkpt>
      <trkpt lat="59.9518699" lon="17.7278517">
        <ele>46.7612</ele>
        <time>2014-06-25T18:43:40Z</time>
      </trkpt>
      <trkpt lat="59.9518963" lon="17.7278173">
        <ele>46.2806</ele>
        <time>2014-06-25T18:43:41Z</time>
      </trkpt>
      <trkpt lat="59.9519196" lon="17.7277773">
        <ele>46.2806</ele>
        <time>2014-06-25T18:43:42Z</time>
      </trkpt>
      <trkpt lat="59.95194" lon="17.7277276">
        <ele>46.2806</ele>
        <time>2014-06-25T18:43:43Z</time>
      </trkpt>
      <trkpt lat="59.9519473" lon="17.7276742">
        <ele>45.7999</ele>
        <time>2014-06-25T18:43:44Z</time>
      </trkpt>
      <trkpt lat="59.9519561" lon="17.7276212">
        <ele>45.7999</ele>
        <time>2014-06-25T18:43:45Z</time>
      </trkpt>
      <trkpt lat="59.9519659" lon="17.7275702">
        <ele>45.3192</ele>
        <time>2014-06-25T18:43:46Z</time>
      </trkpt>
      <trkpt lat="59.9519768" lon="17.727524">
        <ele>44.8386</ele>
        <time>2014-06-25T18:43:47Z</time>
      </trkpt>
      <trkpt lat="59.9519879" lon="17.7274778">
        <ele>44.8386</ele>
        <time>2014-06-25T18:43:48Z</time>
      </trkpt>
      <trkpt lat="59.9519924" lon="17.7274302">
        <ele>44.358</ele>
        <time>2014-06-25T18:43:49Z</time>
      </trkpt>
      <trkpt lat="59.9519895" lon="17.7273763">
        <ele>44.358</ele>
        <time>2014-06-25T18:43:50Z</time>
      </trkpt>
      <trkpt lat="59.9519913" lon="17.7273301">
        <ele>43.8773</ele>
        <time>2014-06-25T18:43:51Z</time>
      </trkpt>
      <trkpt lat="59.9519954" lon="17.7272857">
        <ele>44.358</ele>
        <time>2014-06-25T18:43:52Z</time>
      </trkpt>
      <trkpt lat="59.9520051" lon="17.7272374">
        <ele>44.358</ele>
        <time>2014-06-25T18:43:53Z</time>
      </trkpt>
      <trkpt lat="59.9520082" lon="17.7271821">
        <ele>44.358</ele>
        <time>2014-06-25T18:43:54Z</time>
      </trkpt>
      <trkpt lat="59.9520144" lon="17.7271272">
        <ele>44.358</ele>
        <time>2014-06-25T18:43:55Z</time>
      </trkpt>
      <trkpt lat="59.9520264" lon="17.7270681">
        <ele>44.358</ele>
        <time>2014-06-25T18:43:56Z</time>
      </trkpt>
      <trkpt lat="59.9520353" lon="17.7270115">
        <ele>44.358</ele>
        <time>2014-06-25T18:43:57Z</time>
      </trkpt>
      <trkpt lat="59.9520426" lon="17.7269543">
        <ele>44.8386</ele>
        <time>2014-06-25T18:43:58Z</time>
      </trkpt>
      <trkpt lat="59.9520577" lon="17.7269046">
        <ele>44.8386</ele>
        <time>2014-06-25T18:43:59Z</time>
      </trkpt>
      <trkpt lat="59.9520641" lon="17.726852">
        <ele>45.3192</ele>
        <time>2014-06-25T18:44:00Z</time>
      </trkpt>
      <trkpt lat="59.9520766" lon="17.7268071">
        <ele>44.8386</ele>
        <time>2014-06-25T18:44:01Z</time>
      </trkpt>
      <trkpt lat="59.9520918" lon="17.7267641">
        <ele>45.3192</ele>
        <time>2014-06-25T18:44:02Z</time>
      </trkpt>
      <trkpt lat="59.9521057" lon="17.7267128">
        <ele>45.7999</ele>
        <time>2014-06-25T18:44:03Z</time>
      </trkpt>
      <trkpt lat="59.9521209" lon="17.7266678">
        <ele>45.7999</ele>
        <time>2014-06-25T18:44:04Z</time>
      </trkpt>
      <trkpt lat="59.9521373" lon="17.7266274">
        <ele>46.2806</ele>
        <time>2014-06-25T18:44:05Z</time>
      </trkpt>
      <trkpt lat="59.9521503" lon="17.7265829">
        <ele>46.7612</ele>
        <time>2014-06-25T18:44:06Z</time>
      </trkpt>
      <trkpt lat="59.9521674" lon="17.7265268">
        <ele>47.2418</ele>
        <time>2014-06-25T18:44:07Z</time>
      </trkpt>
      <trkpt lat="59.9521865" lon="17.7264707">
        <ele>47.7225</ele>
        <time>2014-06-25T18:44:08Z</time>
      </trkpt>
      <trkpt lat="59.9522053" lon="17.7264155">
        <ele>47.7225</ele>
        <time>2014-06-25T18:44:09Z</time>
      </trkpt>
      <trkpt lat="59.9522207" lon="17.7263688">
        <ele>47.2418</ele>
        <time>2014-06-25T18:44:10Z</time>
      </trkpt>
      <trkpt lat="59.95224" lon="17.7263377">
        <ele>47.2418</ele>
        <time>2014-06-25T18:44:11Z</time>
      </trkpt>
      <trkpt lat="59.9522606" lon="17.7263029">
        <ele>46.2806</ele>
        <time>2014-06-25T18:44:12Z</time>
      </trkpt>
      <trkpt lat="59.9522824" lon="17.7262668">
        <ele>47.2418</ele>
        <time>2014-06-25T18:44:13Z</time>
      </trkpt>
      <trkpt lat="59.9523052" lon="17.7262309">
        <ele>47.2418</ele>
        <time>2014-06-25T18:44:14Z</time>
      </trkpt>
      <trkpt lat="59.9523273" lon="17.72619">
        <ele>47.7225</ele>
        <time>2014-06-25T18:44:15Z</time>
      </trkpt>
      <trkpt lat="59.9523502" lon="17.7261469">
        <ele>47.7225</ele>
        <time>2014-06-25T18:44:16Z</time>
      </trkpt>
      <trkpt lat="59.9523679" lon="17.7261113">
        <ele>48.2034</ele>
        <time>2014-06-25T18:44:17Z</time>
      </trkpt>
      <trkpt lat="59.9523858" lon="17.7260758">
        <ele>48.684</ele>
        <time>2014-06-25T18:44:18Z</time>
      </trkpt>
      <trkpt lat="59.9524062" lon="17.7260331">
        <ele>48.684</ele>
        <time>2014-06-25T18:44:19Z</time>
      </trkpt>
      <trkpt lat="59.9524213" lon="17.7259969">
        <ele>48.684</ele>
        <time>2014-06-25T18:44:20Z</time>
      </trkpt>
      <trkpt lat="59.9524371" lon="17.7259617">
        <ele>48.684</ele>
        <time>2014-06-25T18:44:21Z</time>
      </trkpt>
      <trkpt lat="59.9524536" lon="17.7259187">
        <ele>49.1646</ele>
        <time>2014-06-25T18:44:22Z</time>
      </trkpt>
      <trkpt lat="59.9524733" lon="17.7258809">
        <ele>48.684</ele>
        <time>2014-06-25T18:44:23Z</time>
      </trkpt>
      <trkpt lat="59.952493" lon="17.7258446">
        <ele>48.684</ele>
        <time>2014-06-25T18:44:24Z</time>
      </trkpt>
      <trkpt lat="59.9525184" lon="17.7258038">
        <ele>49.1646</ele>
        <time>2014-06-25T18:44:25Z</time>
      </trkpt>
      <trkpt lat="59.9525487" lon="17.7257783">
        <ele>49.6453</ele>
        <time>2014-06-25T18:44:26Z</time>
      </trkpt>
      <trkpt lat="59.952572" lon="17.7257389">
        <ele>50.126</ele>
        <time>2014-06-25T18:44:27Z</time>
      </trkpt>
      <trkpt lat="59.9525946" lon="17.7256954">
        <ele>51.0872</ele>
        <time>2014-06-25T18:44:28Z</time>
      </trkpt>
      <trkpt lat="59.952616" lon="17.7256565">
        <ele>51.0872</ele>
        <time>2014-06-25T18:44:29Z</time>
      </trkpt>
      <trkpt lat="59.9526367" lon="17.7256232">
        <ele>51.0872</ele>
        <time>2014-06-25T18:44:30Z</time>
      </trkpt>
      <trkpt lat="59.9526565" lon="17.7255943">
        <ele>50.6066</ele>
        <time>2014-06-25T18:44:31Z</time>
      </trkpt>
      <trkpt lat="59.9526772" lon="17.7255647">
        <ele>50.6066</ele>
        <time>2014-06-25T18:44:32Z</time>
      </trkpt>
      <trkpt lat="59.9526952" lon="17.7255305">
        <ele>50.126</ele>
        <time>2014-06-25T18:44:33Z</time>
      </trkpt>
      <trkpt lat="59.9527065" lon="17.7255001">
        <ele>49.6453</ele>
        <time>2014-06-25T18:44:34Z</time>
      </trkpt>
      <trkpt lat="59.9527278" lon="17.7254601">
        <ele>49.6453</ele>
        <time>2014-06-25T18:44:35Z</time>
      </trkpt>
      <trkpt lat="59.9527585" lon="17.7254115">
        <ele>50.6066</ele>
        <time>2014-06-25T18:44:36Z</time>
      </trkpt>
      <trkpt lat="59.9527916" lon="17.7253692">
        <ele>51.5679</ele>
        <time>2014-06-25T18:44:37Z</time>
      </trkpt>
      <trkpt lat="59.9528165" lon="17.7253234">
        <ele>52.0486</ele>
        <time>2014-06-25T18:44:38Z</time>
      </trkpt>
      <trkpt lat="59.9528495" lon="17.7252851">
        <ele>53.0098</ele>
        <time>2014-06-25T18:44:39Z</time>
      </trkpt>
      <trkpt lat="59.9528704" lon="17.7252397">
        <ele>53.4905</ele>
        <time>2014-06-25T18:44:40Z</time>
      </trkpt>
      <trkpt lat="59.952889" lon="17.7251914">
        <ele>53.9712</ele>
        <time>2014-06-25T18:44:41Z</time>
      </trkpt>
      <trkpt lat="59.9529097" lon="17.7251444">
        <ele>53.4905</ele>
        <time>2014-06-25T18:44:42Z</time>
      </trkpt>
      <trkpt lat="59.9529362" lon="17.7251105">
        <ele>54.4518</ele>
        <time>2014-06-25T18:44:43Z</time>
      </trkpt>
      <trkpt lat="59.9529692" lon="17.725082">
        <ele>55.4131</ele>
        <time>2014-06-25T18:44:44Z</time>
      </trkpt>
      <trkpt lat="59.9529958" lon="17.7250474">
        <ele>55.4131</ele>
        <time>2014-06-25T18:44:45Z</time>
      </trkpt>
      <trkpt lat="59.9530235" lon="17.7250172">
        <ele>54.9324</ele>
        <time>2014-06-25T18:44:46Z</time>
      </trkpt>
      <trkpt lat="59.9530466" lon="17.7249858">
        <ele>55.4131</ele>
        <time>2014-06-25T18:44:47Z</time>
      </trkpt>
      <trkpt lat="59.9530613" lon="17.7249475">
        <ele>55.8938</ele>
        <time>2014-06-25T18:44:48Z</time>
      </trkpt>
      <trkpt lat="59.953082" lon="17.7249198">
        <ele>56.8551</ele>
        <time>2014-06-25T18:44:49Z</time>
      </trkpt>
      <trkpt lat="59.9531029" lon="17.7248952">
        <ele>56.3745</ele>
        <time>2014-06-25T18:44:50Z</time>
      </trkpt>
      <trkpt lat="59.9531206" lon="17.7248696">
        <ele>57.3358</ele>
        <time>2014-06-25T18:44:51Z</time>
      </trkpt>
      <trkpt lat="59.9531382" lon="17.7248449">
        <ele>57.8165</ele>
        <time>2014-06-25T18:44:52Z</time>
      </trkpt>
      <trkpt lat="59.9531474" lon="17.7248168">
        <ele>58.2971</ele>
        <time>2014-06-25T18:44:53Z</time>
      </trkpt>
      <trkpt lat="59.953149" lon="17.7247856">
        <ele>58.7777</ele>
        <time>2014-06-25T18:44:54Z</time>
      </trkpt>
      <trkpt lat="59.9531594" lon="17.7247557">
        <ele>59.2584</ele>
        <time>2014-06-25T18:44:55Z</time>
      </trkpt>
      <trkpt lat="59.9531768" lon="17.7247434">
        <ele>59.7391</ele>
        <time>2014-06-25T18:44:56Z</time>
      </trkpt>
      <trkpt lat="59.9531832" lon="17.7247297">
        <ele>59.7391</ele>
        <time>2014-06-25T18:44:57Z</time>
      </trkpt>
      <trkpt lat="59.9531869" lon="17.7247075">
        <ele>59.7391</ele>
        <time>2014-06-25T18:44:58Z</time>
      </trkpt>
      <trkpt lat="59.9531929" lon="17.7246827">
        <ele>59.7391</ele>
        <time>2014-06-25T18:44:59Z</time>
      </trkpt>
      <trkpt lat="59.9531962" lon="17.7246521">
        <ele>58.7777</ele>
        <time>2014-06-25T18:45:00Z</time>
      </trkpt>
      <trkpt lat="59.9532058" lon="17.7246143">
        <ele>58.2971</ele>
        <time>2014-06-25T18:45:01Z</time>
      </trkpt>
      <trkpt lat="59.9532118" lon="17.7245601">
        <ele>57.3358</ele>
        <time>2014-06-25T18:45:02Z</time>
      </trkpt>
      <trkpt lat="59.9532308" lon="17.7245355">
        <ele>57.8165</ele>
        <time>2014-06-25T18:45:03Z</time>
      </trkpt>
      <trkpt lat="59.9532517" lon="17.7245154">
        <ele>57.8165</ele>
        <time>2014-06-25T18:45:04Z</time>
      </trkpt>
      <trkpt lat="59.9532643" lon="17.7244697">
        <ele>55.8938</ele>
        <time>2014-06-25T18:45:05Z</time>
      </trkpt>
      <trkpt lat="59.9532797" lon="17.7244287">
        <ele>54.4518</ele>
        <time>2014-06-25T18:45:06Z</time>
      </trkpt>
      <trkpt lat="59.9533044" lon="17.7243986">
        <ele>55.8938</ele>
        <time>2014-06-25T18:45:07Z</time>
      </trkpt>
      <trkpt lat="59.953321" lon="17.7243513">
        <ele>54.9324</ele>
        <time>2014-06-25T18:45:08Z</time>
      </trkpt>
      <trkpt lat="59.9533433" lon="17.7243015">
        <ele>53.9712</ele>
        <time>2014-06-25T18:45:09Z</time>
      </trkpt>
      <trkpt lat="59.9533669" lon="17.7242314">
        <ele>52.5292</ele>
        <time>2014-06-25T18:45:10Z</time>
      </trkpt>
      <trkpt lat="59.9533916" lon="17.7241767">
        <ele>50.126</ele>
        <time>2014-06-25T18:45:11Z</time>
      </trkpt>
      <trkpt lat="59.9534197" lon="17.7241357">
        <ele>49.1646</ele>
        <time>2014-06-25T18:45:12Z</time>
      </trkpt>
      <trkpt lat="59.9534474" lon="17.7240718">
        <ele>48.684</ele>
        <time>2014-06-25T18:45:13Z</time>
      </trkpt>
      <trkpt lat="59.9534737" lon="17.7239999">
        <ele>48.684</ele>
        <time>2014-06-25T18:45:14Z</time>
      </trkpt>
      <trkpt lat="59.9534971" lon="17.7239457">
        <ele>48.2034</ele>
        <time>2014-06-25T18:45:15Z</time>
      </trkpt>
      <trkpt lat="59.9535234" lon="17.7238931">
        <ele>48.2034</ele>
        <time>2014-06-25T18:45:16Z</time>
      </trkpt>
      <trkpt lat="59.95355" lon="17.7238373">
        <ele>48.684</ele>
        <time>2014-06-25T18:45:17Z</time>
      </trkpt>
      <trkpt lat="59.9535801" lon="17.7237939">
        <ele>50.126</ele>
        <time>2014-06-25T18:45:18Z</time>
      </trkpt>
      <trkpt lat="59.9536074" lon="17.7237456">
        <ele>51.0872</ele>
        <time>2014-06-25T18:45:19Z</time>
      </trkpt>
      <trkpt lat="59.9536422" lon="17.7237026">
        <ele>53.9712</ele>
        <time>2014-06-25T18:45:20Z</time>
      </trkpt>
      <trkpt lat="59.9536642" lon="17.7236617">
        <ele>54.4518</ele>
        <time>2014-06-25T18:45:21Z</time>
      </trkpt>
      <trkpt lat="59.9537127" lon="17.723627">
        <ele>59.7391</ele>
        <time>2014-06-25T18:45:22Z</time>
      </trkpt>
      <trkpt lat="59.9537409" lon="17.7235685">
        <ele>61.181</ele>
        <time>2014-06-25T18:45:23Z</time>
      </trkpt>
      <trkpt lat="59.9537665" lon="17.7235232">
        <ele>61.6617</ele>
        <time>2014-06-25T18:45:24Z</time>
      </trkpt>
      <trkpt lat="59.9538007" lon="17.7234864">
        <ele>62.1423</ele>
        <time>2014-06-25T18:45:25Z</time>
      </trkpt>
      <trkpt lat="59.9538298" lon="17.7234461">
        <ele>63.5844</ele>
        <time>2014-06-25T18:45:26Z</time>
      </trkpt>
      <trkpt lat="59.9538566" lon="17.7234224">
        <ele>63.5844</ele>
        <time>2014-06-25T18:45:27Z</time>
      </trkpt>
      <trkpt lat="59.9538793" lon="17.723397">
        <ele>64.5457</ele>
        <time>2014-06-25T18:45:28Z</time>
      </trkpt>
      <trkpt lat="59.9539067" lon="17.7233825">
        <ele>65.0264</ele>
        <time>2014-06-25T18:45:29Z</time>
      </trkpt>
      <trkpt lat="59.9539275" lon="17.7233587">
        <ele>64.5457</ele>
        <time>2014-06-25T18:45:30Z</time>
      </trkpt>
      <trkpt lat="59.9539552" lon="17.7233224">
        <ele>65.0264</ele>
        <time>2014-06-25T18:45:31Z</time>
      </trkpt>
      <trkpt lat="59.953988" lon="17.7232986">
        <ele>65.5071</ele>
        <time>2014-06-25T18:45:32Z</time>
      </trkpt>
      <trkpt lat="59.9540208" lon="17.7232793">
        <ele>65.9877</ele>
        <time>2014-06-25T18:45:33Z</time>
      </trkpt>
      <trkpt lat="59.9540474" lon="17.7232499">
        <ele>65.9877</ele>
        <time>2014-06-25T18:45:34Z</time>
      </trkpt>
      <trkpt lat="59.9540691" lon="17.7232101">
        <ele>65.9877</ele>
        <time>2014-06-25T18:45:35Z</time>
      </trkpt>
      <trkpt lat="59.9540886" lon="17.7231696">
        <ele>65.5071</ele>
        <time>2014-06-25T18:45:36Z</time>
      </trkpt>
      <trkpt lat="59.9541123" lon="17.7231406">
        <ele>65.9877</ele>
        <time>2014-06-25T18:45:37Z</time>
      </trkpt>
      <trkpt lat="59.9541279" lon="17.7231255">
        <ele>65.0264</ele>
        <time>2014-06-25T18:45:38Z</time>
      </trkpt>
      <trkpt lat="59.9541441" lon="17.7231121">
        <ele>64.0651</ele>
        <time>2014-06-25T18:45:39Z</time>
      </trkpt>
      <trkpt lat="59.9541696" lon="17.7230988">
        <ele>63.5844</ele>
        <time>2014-06-25T18:45:40Z</time>
      </trkpt>
      <trkpt lat="59.9541876" lon="17.7230974">
        <ele>61.181</ele>
        <time>2014-06-25T18:45:41Z</time>
      </trkpt>
      <trkpt lat="59.9542167" lon="17.7231038">
        <ele>62.1423</ele>
        <time>2014-06-25T18:45:42Z</time>
      </trkpt>
      <trkpt lat="59.9542471" lon="17.723126">
        <ele>63.1036</ele>
        <time>2014-06-25T18:45:43Z</time>
      </trkpt>
      <trkpt lat="59.9542763" lon="17.723149">
        <ele>63.5844</ele>
        <time>2014-06-25T18:45:44Z</time>
      </trkpt>
      <trkpt lat="59.9543056" lon="17.7231699">
        <ele>64.0651</ele>
        <time>2014-06-25T18:45:45Z</time>
      </trkpt>
      <trkpt lat="59.9543309" lon="17.7231893">
        <ele>63.5844</ele>
        <time>2014-06-25T18:45:46Z</time>
      </trkpt>
      <trkpt lat="59.9543573" lon="17.7232042">
        <ele>63.1036</ele>
        <time>2014-06-25T18:45:47Z</time>
      </trkpt>
      <trkpt lat="59.9543845" lon="17.723229">
        <ele>62.1423</ele>
        <time>2014-06-25T18:45:48Z</time>
      </trkpt>
      <trkpt lat="59.9544143" lon="17.7232542">
        <ele>62.6229</ele>
        <time>2014-06-25T18:45:49Z</time>
      </trkpt>
      <trkpt lat="59.9544409" lon="17.7232618">
        <ele>61.6617</ele>
        <time>2014-06-25T18:45:50Z</time>
      </trkpt>
      <trkpt lat="59.9544679" lon="17.7232778">
        <ele>60.7003</ele>
        <time>2014-06-25T18:45:51Z</time>
      </trkpt>
      <trkpt lat="59.9544868" lon="17.7232968">
        <ele>59.7391</ele>
        <time>2014-06-25T18:45:52Z</time>
      </trkpt>
      <trkpt lat="59.9545041" lon="17.7233229">
        <ele>59.2584</ele>
        <time>2014-06-25T18:45:53Z</time>
      </trkpt>
      <trkpt lat="59.9545281" lon="17.7233497">
        <ele>58.7777</ele>
        <time>2014-06-25T18:45:54Z</time>
      </trkpt>
      <trkpt lat="59.954559" lon="17.7233792">
        <ele>59.2584</ele>
        <time>2014-06-25T18:45:55Z</time>
      </trkpt>
      <trkpt lat="59.9545868" lon="17.7233898">
        <ele>59.7391</ele>
        <time>2014-06-25T18:45:56Z</time>
      </trkpt>
      <trkpt lat="59.9546092" lon="17.7234121">
        <ele>58.7777</ele>
        <time>2014-06-25T18:45:57Z</time>
      </trkpt>
      <trkpt lat="59.9546347" lon="17.7234363">
        <ele>58.2971</ele>
        <time>2014-06-25T18:45:58Z</time>
      </trkpt>
      <trkpt lat="59.9546651" lon="17.7234507">
        <ele>58.2971</ele>
        <time>2014-06-25T18:45:59Z</time>
      </trkpt>
      <trkpt lat="59.9546912" lon="17.723469">
        <ele>58.2971</ele>
        <time>2014-06-25T18:46:00Z</time>
      </trkpt>
      <trkpt lat="59.9547169" lon="17.7234875">
        <ele>59.7391</ele>
        <time>2014-06-25T18:46:01Z</time>
      </trkpt>
      <trkpt lat="59.9547471" lon="17.7235115">
        <ele>61.181</ele>
        <time>2014-06-25T18:46:02Z</time>
      </trkpt>
      <trkpt lat="59.9547776" lon="17.7235255">
        <ele>62.1423</ele>
        <time>2014-06-25T18:46:03Z</time>
      </trkpt>
      <trkpt lat="59.9548259" lon="17.7235456">
        <ele>66.4683</ele>
        <time>2014-06-25T18:46:04Z</time>
      </trkpt>
      <trkpt lat="59.9548562" lon="17.723568">
        <ele>67.4297</ele>
        <time>2014-06-25T18:46:05Z</time>
      </trkpt>
      <trkpt lat="59.9548848" lon="17.7236006">
        <ele>67.9103</ele>
        <time>2014-06-25T18:46:06Z</time>
      </trkpt>
      <trkpt lat="59.9549116" lon="17.7236301">
        <ele>67.9103</ele>
        <time>2014-06-25T18:46:07Z</time>
      </trkpt>
      <trkpt lat="59.9549345" lon="17.7236466">
        <ele>65.9877</ele>
        <time>2014-06-25T18:46:08Z</time>
      </trkpt>
      <trkpt lat="59.9549605" lon="17.7236591">
        <ele>66.4683</ele>
        <time>2014-06-25T18:46:09Z</time>
      </trkpt>
      <trkpt lat="59.9549878" lon="17.7236654">
        <ele>65.5071</ele>
        <time>2014-06-25T18:46:10Z</time>
      </trkpt>
      <trkpt lat="59.955016" lon="17.7236679">
        <ele>65.5071</ele>
        <time>2014-06-25T18:46:11Z</time>
      </trkpt>
      <trkpt lat="59.9550427" lon="17.723654">
        <ele>64.5457</ele>
        <time>2014-06-25T18:46:12Z</time>
      </trkpt>
      <trkpt lat="59.9550641" lon="17.7236449">
        <ele>63.5844</ele>
        <time>2014-06-25T18:46:13Z</time>
      </trkpt>
      <trkpt lat="59.9550952" lon="17.7236403">
        <ele>65.0264</ele>
        <time>2014-06-25T18:46:14Z</time>
      </trkpt>
      <trkpt lat="59.9551263" lon="17.7236309">
        <ele>64.5457</ele>
        <time>2014-06-25T18:46:15Z</time>
      </trkpt>
      <trkpt lat="59.9551439" lon="17.7236072">
        <ele>64.0651</ele>
        <time>2014-06-25T18:46:16Z</time>
      </trkpt>
      <trkpt lat="59.9551573" lon="17.7235746">
        <ele>64.5457</ele>
        <time>2014-06-25T18:46:17Z</time>
      </trkpt>
      <trkpt lat="59.9551719" lon="17.7235457">
        <ele>65.0264</ele>
        <time>2014-06-25T18:46:18Z</time>
      </trkpt>
      <trkpt lat="59.9551857" lon="17.7235131">
        <ele>63.1036</ele>
        <time>2014-06-25T18:46:19Z</time>
      </trkpt>
      <trkpt lat="59.9552129" lon="17.723489">
        <ele>63.5844</ele>
        <time>2014-06-25T18:46:20Z</time>
      </trkpt>
      <trkpt lat="59.9552352" lon="17.7234546">
        <ele>62.1423</ele>
        <time>2014-06-25T18:46:21Z</time>
      </trkpt>
      <trkpt lat="59.9552613" lon="17.7234196">
        <ele>62.1423</ele>
        <time>2014-06-25T18:46:22Z</time>
      </trkpt>
      <trkpt lat="59.9552987" lon="17.7233814">
        <ele>61.6617</ele>
        <time>2014-06-25T18:46:23Z</time>
      </trkpt>
      <trkpt lat="59.9553247" lon="17.7233595">
        <ele>59.7391</ele>
        <time>2014-06-25T18:46:24Z</time>
      </trkpt>
      <trkpt lat="59.955347" lon="17.7233419">
        <ele>58.2971</ele>
        <time>2014-06-25T18:46:25Z</time>
      </trkpt>
      <trkpt lat="59.9553711" lon="17.7233269">
        <ele>59.2584</ele>
        <time>2014-06-25T18:46:26Z</time>
      </trkpt>
      <trkpt lat="59.9553982" lon="17.7233094">
        <ele>59.7391</ele>
        <time>2014-06-25T18:46:27Z</time>
      </trkpt>
      <trkpt lat="59.9554237" lon="17.7233157">
        <ele>59.2584</ele>
        <time>2014-06-25T18:46:28Z</time>
      </trkpt>
      <trkpt lat="59.9554536" lon="17.723339">
        <ele>59.2584</ele>
        <time>2014-06-25T18:46:29Z</time>
      </trkpt>
      <trkpt lat="59.9554817" lon="17.7233688">
        <ele>59.2584</ele>
        <time>2014-06-25T18:46:30Z</time>
      </trkpt>
      <trkpt lat="59.9555113" lon="17.7234051">
        <ele>58.2971</ele>
        <time>2014-06-25T18:46:31Z</time>
      </trkpt>
      <trkpt lat="59.9555405" lon="17.7234409">
        <ele>57.3358</ele>
        <time>2014-06-25T18:46:32Z</time>
      </trkpt>
      <trkpt lat="59.9555675" lon="17.7234663">
        <ele>57.8165</ele>
        <time>2014-06-25T18:46:33Z</time>
      </trkpt>
      <trkpt lat="59.9555964" lon="17.7234906">
        <ele>59.2584</ele>
        <time>2014-06-25T18:46:34Z</time>
      </trkpt>
      <trkpt lat="59.95562" lon="17.7235177">
        <ele>58.2971</ele>
        <time>2014-06-25T18:46:35Z</time>
      </trkpt>
      <trkpt lat="59.9556405" lon="17.7235525">
        <ele>59.2584</ele>
        <time>2014-06-25T18:46:36Z</time>
      </trkpt>
      <trkpt lat="59.9556637" lon="17.7235782">
        <ele>58.7777</ele>
        <time>2014-06-25T18:46:37Z</time>
      </trkpt>
      <trkpt lat="59.955696" lon="17.7236047">
        <ele>59.2584</ele>
        <time>2014-06-25T18:46:38Z</time>
      </trkpt>
      <trkpt lat="59.9557245" lon="17.7236307">
        <ele>59.7391</ele>
        <time>2014-06-25T18:46:39Z</time>
      </trkpt>
      <trkpt lat="59.9557418" lon="17.7236506">
        <ele>59.2584</ele>
        <time>2014-06-25T18:46:40Z</time>
      </trkpt>
      <trkpt lat="59.9557551" lon="17.7236682">
        <ele>58.2971</ele>
        <time>2014-06-25T18:46:41Z</time>
      </trkpt>
      <trkpt lat="59.9557721" lon="17.7236844">
        <ele>58.2971</ele>
        <time>2014-06-25T18:46:42Z</time>
      </trkpt>
      <trkpt lat="59.9557939" lon="17.7237027">
        <ele>58.7777</ele>
        <time>2014-06-25T18:46:43Z</time>
      </trkpt>
      <trkpt lat="59.9558235" lon="17.7236998">
        <ele>59.2584</ele>
        <time>2014-06-25T18:46:44Z</time>
      </trkpt>
      <trkpt lat="59.9558556" lon="17.7236685">
        <ele>59.2584</ele>
        <time>2014-06-25T18:46:45Z</time>
      </trkpt>
      <trkpt lat="59.9558835" lon="17.7236217">
        <ele>59.7391</ele>
        <time>2014-06-25T18:46:46Z</time>
      </trkpt>
      <trkpt lat="59.9559044" lon="17.723581">
        <ele>58.2971</ele>
        <time>2014-06-25T18:46:47Z</time>
      </trkpt>
      <trkpt lat="59.9559196" lon="17.7235452">
        <ele>57.3358</ele>
        <time>2014-06-25T18:46:48Z</time>
      </trkpt>
      <trkpt lat="59.9559312" lon="17.7234984">
        <ele>56.8551</ele>
        <time>2014-06-25T18:46:49Z</time>
      </trkpt>
      <trkpt lat="59.9559462" lon="17.723459">
        <ele>56.3745</ele>
        <time>2014-06-25T18:46:50Z</time>
      </trkpt>
      <trkpt lat="59.9559561" lon="17.7234269">
        <ele>55.4131</ele>
        <time>2014-06-25T18:46:51Z</time>
      </trkpt>
      <trkpt lat="59.9559701" lon="17.7233804">
        <ele>54.4518</ele>
        <time>2014-06-25T18:46:52Z</time>
      </trkpt>
      <trkpt lat="59.9559831" lon="17.723329">
        <ele>53.4905</ele>
        <time>2014-06-25T18:46:53Z</time>
      </trkpt>
      <trkpt lat="59.9559961" lon="17.7232809">
        <ele>53.0098</ele>
        <time>2014-06-25T18:46:54Z</time>
      </trkpt>
      <trkpt lat="59.9560082" lon="17.7232316">
        <ele>52.5292</ele>
        <time>2014-06-25T18:46:55Z</time>
      </trkpt>
      <trkpt lat="59.9560209" lon="17.723184">
        <ele>52.5292</ele>
        <time>2014-06-25T18:46:56Z</time>
      </trkpt>
      <trkpt lat="59.9560297" lon="17.7231337">
        <ele>53.0098</ele>
        <time>2014-06-25T18:46:57Z</time>
      </trkpt>
      <trkpt lat="59.9560415" lon="17.723087">
        <ele>53.4905</ele>
        <time>2014-06-25T18:46:58Z</time>
      </trkpt>
      <trkpt lat="59.9560447" lon="17.7230354">
        <ele>53.9712</ele>
        <time>2014-06-25T18:46:59Z</time>
      </trkpt>
      <trkpt lat="59.9560349" lon="17.7229746">
        <ele>54.4518</ele>
        <time>2014-06-25T18:47:00Z</time>
      </trkpt>
      <trkpt lat="59.9560233" lon="17.7229198">
        <ele>54.9324</ele>
        <time>2014-06-25T18:47:01Z</time>
      </trkpt>
      <trkpt lat="59.9560136" lon="17.7228681">
        <ele>54.9324</ele>
        <time>2014-06-25T18:47:02Z</time>
      </trkpt>
      <trkpt lat="59.9560094" lon="17.7228172">
        <ele>55.4131</ele>
        <time>2014-06-25T18:47:03Z</time>
      </trkpt>
      <trkpt lat="59.9560124" lon="17.7227837">
        <ele>55.4131</ele>
        <time>2014-06-25T18:47:04Z</time>
      </trkpt>
      <trkpt lat="59.9560069" lon="17.7227434">
        <ele>55.4131</ele>
        <time>2014-06-25T18:47:05Z</time>
      </trkpt>
      <trkpt lat="59.9560043" lon="17.7226993">
        <ele>55.4131</ele>
        <time>2014-06-25T18:47:06Z</time>
      </trkpt>
      <trkpt lat="59.9560089" lon="17.7226489">
        <ele>55.8938</ele>
        <time>2014-06-25T18:47:07Z</time>
      </trkpt>
      <trkpt lat="59.9560068" lon="17.7225911">
        <ele>55.4131</ele>
        <time>2014-06-25T18:47:08Z</time>
      </trkpt>
      <trkpt lat="59.9560021" lon="17.7225397">
        <ele>56.3745</ele>
        <time>2014-06-25T18:47:09Z</time>
      </trkpt>
      <trkpt lat="59.9559906" lon="17.7224911">
        <ele>56.8551</ele>
        <time>2014-06-25T18:47:10Z</time>
      </trkpt>
      <trkpt lat="59.9559892" lon="17.7224444">
        <ele>56.8551</ele>
        <time>2014-06-25T18:47:11Z</time>
      </trkpt>
      <trkpt lat="59.9559862" lon="17.7223925">
        <ele>57.8165</ele>
        <time>2014-06-25T18:47:12Z</time>
      </trkpt>
      <trkpt lat="59.9559723" lon="17.7223459">
        <ele>57.3358</ele>
        <time>2014-06-25T18:47:13Z</time>
      </trkpt>
      <trkpt lat="59.955959" lon="17.7222901">
        <ele>57.8165</ele>
        <time>2014-06-25T18:47:14Z</time>
      </trkpt>
      <trkpt lat="59.9559452" lon="17.7222269">
        <ele>57.3358</ele>
        <time>2014-06-25T18:47:15Z</time>
      </trkpt>
      <trkpt lat="59.9559407" lon="17.7221776">
        <ele>57.3358</ele>
        <time>2014-06-25T18:47:16Z</time>
      </trkpt>
      <trkpt lat="59.9559406" lon="17.7221327">
        <ele>56.8551</ele>
        <time>2014-06-25T18:47:17Z</time>
      </trkpt>
      <trkpt lat="59.9559401" lon="17.7220923">
        <ele>56.8551</ele>
        <time>2014-06-25T18:47:18Z</time>
      </trkpt>
      <trkpt lat="59.9559379" lon="17.7220547">
        <ele>56.8551</ele>
        <time>2014-06-25T18:47:19Z</time>
      </trkpt>
      <trkpt lat="59.9559436" lon="17.7220134">
        <ele>55.8938</ele>
        <time>2014-06-25T18:47:20Z</time>
      </trkpt>
      <trkpt lat="59.9559504" lon="17.7219678">
        <ele>56.3745</ele>
        <time>2014-06-25T18:47:21Z</time>
      </trkpt>
      <trkpt lat="59.9559521" lon="17.7219103">
        <ele>55.8938</ele>
        <time>2014-06-25T18:47:22Z</time>
      </trkpt>
      <trkpt lat="59.9559658" lon="17.7218668">
        <ele>55.8938</ele>
        <time>2014-06-25T18:47:23Z</time>
      </trkpt>
      <trkpt lat="59.9559851" lon="17.7218155">
        <ele>56.3745</ele>
        <time>2014-06-25T18:47:24Z</time>
      </trkpt>
      <trkpt lat="59.9559882" lon="17.7217527">
        <ele>55.8938</ele>
        <time>2014-06-25T18:47:25Z</time>
      </trkpt>
      <trkpt lat="59.9559867" lon="17.7217008">
        <ele>55.8938</ele>
        <time>2014-06-25T18:47:26Z</time>
      </trkpt>
      <trkpt lat="59.9559831" lon="17.7216409">
        <ele>55.4131</ele>
        <time>2014-06-25T18:47:27Z</time>
      </trkpt>
      <trkpt lat="59.9559799" lon="17.7215752">
        <ele>54.9324</ele>
        <time>2014-06-25T18:47:28Z</time>
      </trkpt>
      <trkpt lat="59.9559674" lon="17.7215067">
        <ele>53.9712</ele>
        <time>2014-06-25T18:47:29Z</time>
      </trkpt>
      <trkpt lat="59.9559435" lon="17.7214432">
        <ele>53.4905</ele>
        <time>2014-06-25T18:47:30Z</time>
      </trkpt>
      <trkpt lat="59.955916" lon="17.7213924">
        <ele>53.0098</ele>
        <time>2014-06-25T18:47:31Z</time>
      </trkpt>
      <trkpt lat="59.9558922" lon="17.7213539">
        <ele>52.5292</ele>
        <time>2014-06-25T18:47:32Z</time>
      </trkpt>
      <trkpt lat="59.9558715" lon="17.7213243">
        <ele>51.5679</ele>
        <time>2014-06-25T18:47:33Z</time>
      </trkpt>
      <trkpt lat="59.9558492" lon="17.7212969">
        <ele>51.5679</ele>
        <time>2014-06-25T18:47:34Z</time>
      </trkpt>
      <trkpt lat="59.9558257" lon="17.7212772">
        <ele>51.5679</ele>
        <time>2014-06-25T18:47:35Z</time>
      </trkpt>
      <trkpt lat="59.9558057" lon="17.7212681">
        <ele>52.5292</ele>
        <time>2014-06-25T18:47:36Z</time>
      </trkpt>
      <trkpt lat="59.9557806" lon="17.7212678">
        <ele>52.0486</ele>
        <time>2014-06-25T18:47:37Z</time>
      </trkpt>
      <trkpt lat="59.9557563" lon="17.7212636">
        <ele>52.5292</ele>
        <time>2014-06-25T18:47:38Z</time>
      </trkpt>
      <trkpt lat="59.9557383" lon="17.7212638">
        <ele>53.0098</ele>
        <time>2014-06-25T18:47:39Z</time>
      </trkpt>
      <trkpt lat="59.9557172" lon="17.7212659">
        <ele>54.4518</ele>
        <time>2014-06-25T18:47:40Z</time>
      </trkpt>
      <trkpt lat="59.9556995" lon="17.7212716">
        <ele>54.4518</ele>
        <time>2014-06-25T18:47:41Z</time>
      </trkpt>
      <trkpt lat="59.9556738" lon="17.7212733">
        <ele>54.9324</ele>
        <time>2014-06-25T18:47:42Z</time>
      </trkpt>
      <trkpt lat="59.9556504" lon="17.7212727">
        <ele>55.4131</ele>
        <time>2014-06-25T18:47:43Z</time>
      </trkpt>
      <trkpt lat="59.9556334" lon="17.7212974">
        <ele>56.3745</ele>
        <time>2014-06-25T18:47:44Z</time>
      </trkpt>
      <trkpt lat="59.9556075" lon="17.7213228">
        <ele>55.4131</ele>
        <time>2014-06-25T18:47:45Z</time>
      </trkpt>
      <trkpt lat="59.955577" lon="17.7213369">
        <ele>55.4131</ele>
        <time>2014-06-25T18:47:46Z</time>
      </trkpt>
      <trkpt lat="59.9555552" lon="17.7213494">
        <ele>54.4518</ele>
        <time>2014-06-25T18:47:47Z</time>
      </trkpt>
      <trkpt lat="59.9555334" lon="17.7213582">
        <ele>53.4905</ele>
        <time>2014-06-25T18:47:48Z</time>
      </trkpt>
      <trkpt lat="59.9555111" lon="17.7213593">
        <ele>52.5292</ele>
        <time>2014-06-25T18:47:49Z</time>
      </trkpt>
      <trkpt lat="59.9554873" lon="17.7213674">
        <ele>51.5679</ele>
        <time>2014-06-25T18:47:50Z</time>
      </trkpt>
      <trkpt lat="59.9554705" lon="17.7213736">
        <ele>51.0872</ele>
        <time>2014-06-25T18:47:51Z</time>
      </trkpt>
      <trkpt lat="59.9554524" lon="17.7213805">
        <ele>51.0872</ele>
        <time>2014-06-25T18:47:52Z</time>
      </trkpt>
      <trkpt lat="59.9554346" lon="17.7213901">
        <ele>50.6066</ele>
        <time>2014-06-25T18:47:53Z</time>
      </trkpt>
      <trkpt lat="59.9554159" lon="17.7213917">
        <ele>50.6066</ele>
        <time>2014-06-25T18:47:54Z</time>
      </trkpt>
      <trkpt lat="59.9554003" lon="17.7213887">
        <ele>51.0872</ele>
        <time>2014-06-25T18:47:55Z</time>
      </trkpt>
      <trkpt lat="59.9553773" lon="17.7213766">
        <ele>50.6066</ele>
        <time>2014-06-25T18:47:56Z</time>
      </trkpt>
      <trkpt lat="59.9553469" lon="17.7213577">
        <ele>50.126</ele>
        <time>2014-06-25T18:47:57Z</time>
      </trkpt>
      <trkpt lat="59.9553208" lon="17.7213462">
        <ele>50.6066</ele>
        <time>2014-06-25T18:47:58Z</time>
      </trkpt>
      <trkpt lat="59.9552982" lon="17.7213374">
        <ele>51.0872</ele>
        <time>2014-06-25T18:47:59Z</time>
      </trkpt>
      <trkpt lat="59.9552739" lon="17.7213386">
        <ele>51.0872</ele>
        <time>2014-06-25T18:48:00Z</time>
      </trkpt>
      <trkpt lat="59.9552483" lon="17.7213442">
        <ele>51.5679</ele>
        <time>2014-06-25T18:48:01Z</time>
      </trkpt>
      <trkpt lat="59.9552257" lon="17.7213455">
        <ele>52.0486</ele>
        <time>2014-06-25T18:48:02Z</time>
      </trkpt>
      <trkpt lat="59.9552064" lon="17.7213466">
        <ele>52.5292</ele>
        <time>2014-06-25T18:48:03Z</time>
      </trkpt>
      <trkpt lat="59.9551863" lon="17.7213548">
        <ele>53.9712</ele>
        <time>2014-06-25T18:48:04Z</time>
      </trkpt>
      <trkpt lat="59.9551589" lon="17.7213528">
        <ele>54.9324</ele>
        <time>2014-06-25T18:48:05Z</time>
      </trkpt>
      <trkpt lat="59.9551271" lon="17.7213473">
        <ele>54.4518</ele>
        <time>2014-06-25T18:48:06Z</time>
      </trkpt>
      <trkpt lat="59.9550948" lon="17.7213296">
        <ele>53.9712</ele>
        <time>2014-06-25T18:48:07Z</time>
      </trkpt>
      <trkpt lat="59.9550667" lon="17.7213213">
        <ele>53.4905</ele>
        <time>2014-06-25T18:48:08Z</time>
      </trkpt>
      <trkpt lat="59.9550365" lon="17.7213084">
        <ele>52.5292</ele>
        <time>2014-06-25T18:48:09Z</time>
      </trkpt>
      <trkpt lat="59.9550044" lon="17.7212947">
        <ele>52.0486</ele>
        <time>2014-06-25T18:48:10Z</time>
      </trkpt>
      <trkpt lat="59.9549753" lon="17.7212803">
        <ele>52.0486</ele>
        <time>2014-06-25T18:48:11Z</time>
      </trkpt>
      <trkpt lat="59.954932" lon="17.7212469">
        <ele>52.5292</ele>
        <time>2014-06-25T18:48:12Z</time>
      </trkpt>
      <trkpt lat="59.9548916" lon="17.7212044">
        <ele>53.0098</ele>
        <time>2014-06-25T18:48:13Z</time>
      </trkpt>
      <trkpt lat="59.9548641" lon="17.7211679">
        <ele>53.4905</ele>
        <time>2014-06-25T18:48:14Z</time>
      </trkpt>
      <trkpt lat="59.9548523" lon="17.7211416">
        <ele>53.0098</ele>
        <time>2014-06-25T18:48:15Z</time>
      </trkpt>
      <trkpt lat="59.954834" lon="17.7210893">
        <ele>53.0098</ele>
        <time>2014-06-25T18:48:16Z</time>
      </trkpt>
      <trkpt lat="59.9548282" lon="17.7210368">
        <ele>53.0098</ele>
        <time>2014-06-25T18:48:17Z</time>
      </trkpt>
      <trkpt lat="59.9548152" lon="17.7209789">
        <ele>53.4905</ele>
        <time>2014-06-25T18:48:18Z</time>
      </trkpt>
      <trkpt lat="59.9548068" lon="17.7209271">
        <ele>53.0098</ele>
        <time>2014-06-25T18:48:19Z</time>
      </trkpt>
      <trkpt lat="59.9548018" lon="17.7208686">
        <ele>53.0098</ele>
        <time>2014-06-25T18:48:20Z</time>
      </trkpt>
      <trkpt lat="59.9547931" lon="17.7207966">
        <ele>53.4905</ele>
        <time>2014-06-25T18:48:21Z</time>
      </trkpt>
      <trkpt lat="59.9547988" lon="17.7207394">
        <ele>54.9324</ele>
        <time>2014-06-25T18:48:22Z</time>
      </trkpt>
      <trkpt lat="59.9548056" lon="17.7206785">
        <ele>54.9324</ele>
        <time>2014-06-25T18:48:23Z</time>
      </trkpt>
      <trkpt lat="59.9548147" lon="17.7206245">
        <ele>55.4131</ele>
        <time>2014-06-25T18:48:24Z</time>
      </trkpt>
      <trkpt lat="59.9548201" lon="17.7205755">
        <ele>56.8551</ele>
        <time>2014-06-25T18:48:25Z</time>
      </trkpt>
      <trkpt lat="59.9548314" lon="17.720536">
        <ele>57.3358</ele>
        <time>2014-06-25T18:48:26Z</time>
      </trkpt>
      <trkpt lat="59.9548417" lon="17.7204895">
        <ele>56.8551</ele>
        <time>2014-06-25T18:48:27Z</time>
      </trkpt>
      <trkpt lat="59.9548594" lon="17.7204436">
        <ele>57.3358</ele>
        <time>2014-06-25T18:48:28Z</time>
      </trkpt>
      <trkpt lat="59.9548782" lon="17.7203916">
        <ele>57.8165</ele>
        <time>2014-06-25T18:48:29Z</time>
      </trkpt>
      <trkpt lat="59.954902" lon="17.7203635">
        <ele>57.8165</ele>
        <time>2014-06-25T18:48:30Z</time>
      </trkpt>
      <trkpt lat="59.9549273" lon="17.7203476">
        <ele>57.8165</ele>
        <time>2014-06-25T18:48:31Z</time>
      </trkpt>
      <trkpt lat="59.9549542" lon="17.7203339">
        <ele>57.3358</ele>
        <time>2014-06-25T18:48:32Z</time>
      </trkpt>
      <trkpt lat="59.9549836" lon="17.7203143">
        <ele>58.2971</ele>
        <time>2014-06-25T18:48:33Z</time>
      </trkpt>
      <trkpt lat="59.955006" lon="17.7202854">
        <ele>58.7777</ele>
        <time>2014-06-25T18:48:34Z</time>
      </trkpt>
      <trkpt lat="59.9550339" lon="17.7202535">
        <ele>59.2584</ele>
        <time>2014-06-25T18:48:35Z</time>
      </trkpt>
      <trkpt lat="59.9550615" lon="17.7202176">
        <ele>59.7391</ele>
        <time>2014-06-25T18:48:36Z</time>
      </trkpt>
      <trkpt lat="59.9550867" lon="17.7201889">
        <ele>60.2197</ele>
        <time>2014-06-25T18:48:37Z</time>
      </trkpt>
      <trkpt lat="59.9551118" lon="17.720163">
        <ele>60.7003</ele>
        <time>2014-06-25T18:48:38Z</time>
      </trkpt>
      <trkpt lat="59.9551339" lon="17.7201361">
        <ele>61.6617</ele>
        <time>2014-06-25T18:48:39Z</time>
      </trkpt>
      <trkpt lat="59.9551548" lon="17.7201051">
        <ele>62.1423</ele>
        <time>2014-06-25T18:48:40Z</time>
      </trkpt>
      <trkpt lat="59.9551785" lon="17.7200867">
        <ele>63.1036</ele>
        <time>2014-06-25T18:48:41Z</time>
      </trkpt>
      <trkpt lat="59.9552029" lon="17.7200523">
        <ele>64.5457</ele>
        <time>2014-06-25T18:48:42Z</time>
      </trkpt>
      <trkpt lat="59.9552247" lon="17.7200261">
        <ele>65.5071</ele>
        <time>2014-06-25T18:48:43Z</time>
      </trkpt>
      <trkpt lat="59.9552417" lon="17.7200019">
        <ele>66.4683</ele>
        <time>2014-06-25T18:48:44Z</time>
      </trkpt>
      <trkpt lat="59.9552599" lon="17.7199782">
        <ele>66.4683</ele>
        <time>2014-06-25T18:48:45Z</time>
      </trkpt>
      <trkpt lat="59.9552868" lon="17.7199486">
        <ele>67.4297</ele>
        <time>2014-06-25T18:48:46Z</time>
      </trkpt>
      <trkpt lat="59.9553117" lon="17.7199228">
        <ele>67.4297</ele>
        <time>2014-06-25T18:48:47Z</time>
      </trkpt>
      <trkpt lat="59.9553335" lon="17.7198984">
        <ele>66.949</ele>
        <time>2014-06-25T18:48:48Z</time>
      </trkpt>
      <trkpt lat="59.9553557" lon="17.7198745">
        <ele>66.949</ele>
        <time>2014-06-25T18:48:49Z</time>
      </trkpt>
      <trkpt lat="59.9553769" lon="17.7198435">
        <ele>66.949</ele>
        <time>2014-06-25T18:48:50Z</time>
      </trkpt>
      <trkpt lat="59.9554034" lon="17.7198196">
        <ele>67.4297</ele>
        <time>2014-06-25T18:48:51Z</time>
      </trkpt>
      <trkpt lat="59.9554298" lon="17.7198042">
        <ele>67.4297</ele>
        <time>2014-06-25T18:48:52Z</time>
      </trkpt>
      <trkpt lat="59.9554516" lon="17.7197923">
        <ele>68.3909</ele>
        <time>2014-06-25T18:48:53Z</time>
      </trkpt>
      <trkpt lat="59.9554778" lon="17.7197754">
        <ele>68.8716</ele>
        <time>2014-06-25T18:48:54Z</time>
      </trkpt>
      <trkpt lat="59.9555049" lon="17.7197579">
        <ele>69.3523</ele>
        <time>2014-06-25T18:48:55Z</time>
      </trkpt>
      <trkpt lat="59.9555294" lon="17.7197486">
        <ele>68.8716</ele>
        <time>2014-06-25T18:48:56Z</time>
      </trkpt>
      <trkpt lat="59.9555526" lon="17.7197503">
        <ele>68.8716</ele>
        <time>2014-06-25T18:48:57Z</time>
      </trkpt>
      <trkpt lat="59.9555755" lon="17.7197471">
        <ele>68.8716</ele>
        <time>2014-06-25T18:48:58Z</time>
      </trkpt>
      <trkpt lat="59.9556003" lon="17.7197384">
        <ele>68.8716</ele>
        <time>2014-06-25T18:48:59Z</time>
      </trkpt>
      <trkpt lat="59.9556246" lon="17.719727">
        <ele>68.3909</ele>
        <time>2014-06-25T18:49:00Z</time>
      </trkpt>
      <trkpt lat="59.955643" lon="17.7197053">
        <ele>67.9103</ele>
        <time>2014-06-25T18:49:01Z</time>
      </trkpt>
      <trkpt lat="59.9556658" lon="17.719675">
        <ele>67.4297</ele>
        <time>2014-06-25T18:49:02Z</time>
      </trkpt>
      <trkpt lat="59.9556924" lon="17.7196378">
        <ele>67.4297</ele>
        <time>2014-06-25T18:49:03Z</time>
      </trkpt>
      <trkpt lat="59.9557219" lon="17.7195993">
        <ele>67.9103</ele>
        <time>2014-06-25T18:49:04Z</time>
      </trkpt>
      <trkpt lat="59.9557529" lon="17.7195573">
        <ele>67.9103</ele>
        <time>2014-06-25T18:49:05Z</time>
      </trkpt>
      <trkpt lat="59.9557817" lon="17.719524">
        <ele>67.9103</ele>
        <time>2014-06-25T18:49:06Z</time>
      </trkpt>
      <trkpt lat="59.9558086" lon="17.7194943">
        <ele>68.3909</ele>
        <time>2014-06-25T18:49:07Z</time>
      </trkpt>
      <trkpt lat="59.9558366" lon="17.7194661">
        <ele>69.3523</ele>
        <time>2014-06-25T18:49:08Z</time>
      </trkpt>
      <trkpt lat="59.9558604" lon="17.7194409">
        <ele>69.3523</ele>
        <time>2014-06-25T18:49:09Z</time>
      </trkpt>
      <trkpt lat="59.9558868" lon="17.7194146">
        <ele>69.3523</ele>
        <time>2014-06-25T18:49:10Z</time>
      </trkpt>
      <trkpt lat="59.9559085" lon="17.7194026">
        <ele>69.3523</ele>
        <time>2014-06-25T18:49:11Z</time>
      </trkpt>
      <trkpt lat="59.9559287" lon="17.7193876">
        <ele>68.8716</ele>
        <time>2014-06-25T18:49:12Z</time>
      </trkpt>
      <trkpt lat="59.9559495" lon="17.7193633">
        <ele>69.3523</ele>
        <time>2014-06-25T18:49:13Z</time>
      </trkpt>
      <trkpt lat="59.9559612" lon="17.7193379">
        <ele>68.3909</ele>
        <time>2014-06-25T18:49:14Z</time>
      </trkpt>
      <trkpt lat="59.9559718" lon="17.7192997">
        <ele>67.9103</ele>
        <time>2014-06-25T18:49:15Z</time>
      </trkpt>
      <trkpt lat="59.9559875" lon="17.7192731">
        <ele>67.4297</ele>
        <time>2014-06-25T18:49:16Z</time>
      </trkpt>
      <trkpt lat="59.9560111" lon="17.7192479">
        <ele>66.4683</ele>
        <time>2014-06-25T18:49:17Z</time>
      </trkpt>
      <trkpt lat="59.9560396" lon="17.7192031">
        <ele>65.9877</ele>
        <time>2014-06-25T18:49:18Z</time>
      </trkpt>
      <trkpt lat="59.9560633" lon="17.7191633">
        <ele>65.5071</ele>
        <time>2014-06-25T18:49:19Z</time>
      </trkpt>
      <trkpt lat="59.9560841" lon="17.7191347">
        <ele>65.0264</ele>
        <time>2014-06-25T18:49:20Z</time>
      </trkpt>
      <trkpt lat="59.9561056" lon="17.7190958">
        <ele>65.0264</ele>
        <time>2014-06-25T18:49:21Z</time>
      </trkpt>
      <trkpt lat="59.9561265" lon="17.7190602">
        <ele>65.0264</ele>
        <time>2014-06-25T18:49:22Z</time>
      </trkpt>
      <trkpt lat="59.9561389" lon="17.7190306">
        <ele>65.0264</ele>
        <time>2014-06-25T18:49:23Z</time>
      </trkpt>
      <trkpt lat="59.9561554" lon="17.718998">
        <ele>64.5457</ele>
        <time>2014-06-25T18:49:24Z</time>
      </trkpt>
      <trkpt lat="59.9561674" lon="17.7189604">
        <ele>64.0651</ele>
        <time>2014-06-25T18:49:25Z</time>
      </trkpt>
      <trkpt lat="59.956184" lon="17.7189261">
        <ele>64.0651</ele>
        <time>2014-06-25T18:49:26Z</time>
      </trkpt>
      <trkpt lat="59.9561944" lon="17.7188875">
        <ele>63.5844</ele>
        <time>2014-06-25T18:49:27Z</time>
      </trkpt>
      <trkpt lat="59.9562006" lon="17.718844">
        <ele>63.1036</ele>
        <time>2014-06-25T18:49:28Z</time>
      </trkpt>
      <trkpt lat="59.9562094" lon="17.7188003">
        <ele>62.1423</ele>
        <time>2014-06-25T18:49:29Z</time>
      </trkpt>
      <trkpt lat="59.9562126" lon="17.7187498">
        <ele>61.6617</ele>
        <time>2014-06-25T18:49:30Z</time>
      </trkpt>
      <trkpt lat="59.9561983" lon="17.7186888">
        <ele>60.7003</ele>
        <time>2014-06-25T18:49:31Z</time>
      </trkpt>
      <trkpt lat="59.9561702" lon="17.7186177">
        <ele>61.181</ele>
        <time>2014-06-25T18:49:32Z</time>
      </trkpt>
      <trkpt lat="59.9561706" lon="17.7185712">
        <ele>59.7391</ele>
        <time>2014-06-25T18:49:33Z</time>
      </trkpt>
      <trkpt lat="59.9561731" lon="17.7185297">
        <ele>58.7777</ele>
        <time>2014-06-25T18:49:34Z</time>
      </trkpt>
      <trkpt lat="59.9561721" lon="17.718493">
        <ele>57.8165</ele>
        <time>2014-06-25T18:49:35Z</time>
      </trkpt>
      <trkpt lat="59.9561654" lon="17.7184646">
        <ele>57.3358</ele>
        <time>2014-06-25T18:49:36Z</time>
      </trkpt>
      <trkpt lat="59.9561564" lon="17.7184345">
        <ele>56.3745</ele>
        <time>2014-06-25T18:49:37Z</time>
      </trkpt>
      <trkpt lat="59.9561483" lon="17.7184075">
        <ele>56.3745</ele>
        <time>2014-06-25T18:49:38Z</time>
      </trkpt>
      <trkpt lat="59.9561369" lon="17.7183752">
        <ele>55.4131</ele>
        <time>2014-06-25T18:49:39Z</time>
      </trkpt>
      <trkpt lat="59.9561228" lon="17.7183252">
        <ele>54.9324</ele>
        <time>2014-06-25T18:49:40Z</time>
      </trkpt>
      <trkpt lat="59.9561064" lon="17.7182769">
        <ele>54.9324</ele>
        <time>2014-06-25T18:49:41Z</time>
      </trkpt>
      <trkpt lat="59.9560939" lon="17.7182403">
        <ele>54.9324</ele>
        <time>2014-06-25T18:49:42Z</time>
      </trkpt>
      <trkpt lat="59.9560839" lon="17.7182137">
        <ele>53.9712</ele>
        <time>2014-06-25T18:49:43Z</time>
      </trkpt>
      <trkpt lat="59.9560758" lon="17.7181817">
        <ele>53.9712</ele>
        <time>2014-06-25T18:49:44Z</time>
      </trkpt>
      <trkpt lat="59.9560652" lon="17.7181429">
        <ele>53.9712</ele>
        <time>2014-06-25T18:49:45Z</time>
      </trkpt>
      <trkpt lat="59.9560556" lon="17.7181051">
        <ele>53.9712</ele>
        <time>2014-06-25T18:49:46Z</time>
      </trkpt>
      <trkpt lat="59.9560385" lon="17.7180572">
        <ele>53.0098</ele>
        <time>2014-06-25T18:49:47Z</time>
      </trkpt>
      <trkpt lat="59.956007" lon="17.7180046">
        <ele>53.0098</ele>
        <time>2014-06-25T18:49:48Z</time>
      </trkpt>
      <trkpt lat="59.9559846" lon="17.7179648">
        <ele>53.0098</ele>
        <time>2014-06-25T18:49:49Z</time>
      </trkpt>
      <trkpt lat="59.9559613" lon="17.7179168">
        <ele>52.5292</ele>
        <time>2014-06-25T18:49:50Z</time>
      </trkpt>
      <trkpt lat="59.9559402" lon="17.7178735">
        <ele>52.5292</ele>
        <time>2014-06-25T18:49:51Z</time>
      </trkpt>
      <trkpt lat="59.9559233" lon="17.7178274">
        <ele>53.0098</ele>
        <time>2014-06-25T18:49:52Z</time>
      </trkpt>
      <trkpt lat="59.9559069" lon="17.7177839">
        <ele>52.5292</ele>
        <time>2014-06-25T18:49:53Z</time>
      </trkpt>
      <trkpt lat="59.9558893" lon="17.7177464">
        <ele>52.0486</ele>
        <time>2014-06-25T18:49:54Z</time>
      </trkpt>
      <trkpt lat="59.9558717" lon="17.7177047">
        <ele>52.0486</ele>
        <time>2014-06-25T18:49:55Z</time>
      </trkpt>
      <trkpt lat="59.955853" lon="17.717665">
        <ele>52.0486</ele>
        <time>2014-06-25T18:49:56Z</time>
      </trkpt>
      <trkpt lat="59.9558306" lon="17.7176135">
        <ele>51.5679</ele>
        <time>2014-06-25T18:49:57Z</time>
      </trkpt>
      <trkpt lat="59.9558168" lon="17.717571">
        <ele>51.0872</ele>
        <time>2014-06-25T18:49:58Z</time>
      </trkpt>
      <trkpt lat="59.9558032" lon="17.7175389">
        <ele>50.6066</ele>
        <time>2014-06-25T18:49:59Z</time>
      </trkpt>
      <trkpt lat="59.9557862" lon="17.7175005">
        <ele>50.6066</ele>
        <time>2014-06-25T18:50:00Z</time>
      </trkpt>
      <trkpt lat="59.9557651" lon="17.7174461">
        <ele>50.126</ele>
        <time>2014-06-25T18:50:01Z</time>
      </trkpt>
      <trkpt lat="59.9557432" lon="17.7173921">
        <ele>50.6066</ele>
        <time>2014-06-25T18:50:02Z</time>
      </trkpt>
      <trkpt lat="59.9557298" lon="17.7173549">
        <ele>50.126</ele>
        <time>2014-06-25T18:50:03Z</time>
      </trkpt>
      <trkpt lat="59.9557142" lon="17.7173217">
        <ele>50.6066</ele>
        <time>2014-06-25T18:50:04Z</time>
      </trkpt>
      <trkpt lat="59.9557018" lon="17.7172861">
        <ele>50.126</ele>
        <time>2014-06-25T18:50:05Z</time>
      </trkpt>
      <trkpt lat="59.9556941" lon="17.7172418">
        <ele>49.6453</ele>
        <time>2014-06-25T18:50:06Z</time>
      </trkpt>
      <trkpt lat="59.9556935" lon="17.7171978">
        <ele>49.6453</ele>
        <time>2014-06-25T18:50:07Z</time>
      </trkpt>
      <trkpt lat="59.9557007" lon="17.717145">
        <ele>49.6453</ele>
        <time>2014-06-25T18:50:08Z</time>
      </trkpt>
      <trkpt lat="59.9557094" lon="17.7170964">
        <ele>50.126</ele>
        <time>2014-06-25T18:50:09Z</time>
      </trkpt>
      <trkpt lat="59.9557008" lon="17.717042">
        <ele>50.6066</ele>
        <time>2014-06-25T18:50:10Z</time>
      </trkpt>
      <trkpt lat="59.9556874" lon="17.7169923">
        <ele>50.126</ele>
        <time>2014-06-25T18:50:11Z</time>
      </trkpt>
      <trkpt lat="59.9556785" lon="17.7169389">
        <ele>49.1646</ele>
        <time>2014-06-25T18:50:12Z</time>
      </trkpt>
      <trkpt lat="59.9556727" lon="17.7168945">
        <ele>49.6453</ele>
        <time>2014-06-25T18:50:13Z</time>
      </trkpt>
      <trkpt lat="59.955666" lon="17.7168566">
        <ele>50.6066</ele>
        <time>2014-06-25T18:50:14Z</time>
      </trkpt>
      <trkpt lat="59.9556643" lon="17.7168145">
        <ele>50.6066</ele>
        <time>2014-06-25T18:50:15Z</time>
      </trkpt>
      <trkpt lat="59.9556686" lon="17.7167585">
        <ele>51.0872</ele>
        <time>2014-06-25T18:50:16Z</time>
      </trkpt>
      <trkpt lat="59.9556615" lon="17.7167054">
        <ele>50.6066</ele>
        <time>2014-06-25T18:50:17Z</time>
      </trkpt>
      <trkpt lat="59.9556524" lon="17.7166613">
        <ele>50.6066</ele>
        <time>2014-06-25T18:50:18Z</time>
      </trkpt>
      <trkpt lat="59.9556463" lon="17.7166106">
        <ele>50.126</ele>
        <time>2014-06-25T18:50:19Z</time>
      </trkpt>
      <trkpt lat="59.955639" lon="17.7165604">
        <ele>50.126</ele>
        <time>2014-06-25T18:50:20Z</time>
      </trkpt>
      <trkpt lat="59.9556285" lon="17.7164991">
        <ele>49.1646</ele>
        <time>2014-06-25T18:50:21Z</time>
      </trkpt>
      <trkpt lat="59.9556306" lon="17.716425">
        <ele>50.126</ele>
        <time>2014-06-25T18:50:22Z</time>
      </trkpt>
      <trkpt lat="59.9556375" lon="17.7163644">
        <ele>50.6066</ele>
        <time>2014-06-25T18:50:23Z</time>
      </trkpt>
      <trkpt lat="59.955637" lon="17.7163027">
        <ele>50.126</ele>
        <time>2014-06-25T18:50:24Z</time>
      </trkpt>
      <trkpt lat="59.9556247" lon="17.7162396">
        <ele>50.126</ele>
        <time>2014-06-25T18:50:25Z</time>
      </trkpt>
      <trkpt lat="59.9556142" lon="17.7161863">
        <ele>49.1646</ele>
        <time>2014-06-25T18:50:26Z</time>
      </trkpt>
      <trkpt lat="59.9555954" lon="17.7161133">
        <ele>48.684</ele>
        <time>2014-06-25T18:50:27Z</time>
      </trkpt>
      <trkpt lat="59.9555898" lon="17.7160483">
        <ele>48.684</ele>
        <time>2014-06-25T18:50:28Z</time>
      </trkpt>
      <trkpt lat="59.9555815" lon="17.7159775">
        <ele>48.2034</ele>
        <time>2014-06-25T18:50:29Z</time>
      </trkpt>
      <trkpt lat="59.9555708" lon="17.7159034">
        <ele>47.7225</ele>
        <time>2014-06-25T18:50:30Z</time>
      </trkpt>
      <trkpt lat="59.9555536" lon="17.7158293">
        <ele>46.7612</ele>
        <time>2014-06-25T18:50:31Z</time>
      </trkpt>
      <trkpt lat="59.9555407" lon="17.715759">
        <ele>47.2418</ele>
        <time>2014-06-25T18:50:32Z</time>
      </trkpt>
      <trkpt lat="59.955525" lon="17.7156896">
        <ele>46.2806</ele>
        <time>2014-06-25T18:50:33Z</time>
      </trkpt>
      <trkpt lat="59.9555111" lon="17.7156251">
        <ele>46.2806</ele>
        <time>2014-06-25T18:50:34Z</time>
      </trkpt>
      <trkpt lat="59.9555065" lon="17.7155704">
        <ele>45.7999</ele>
        <time>2014-06-25T18:50:35Z</time>
      </trkpt>
      <trkpt lat="59.9555097" lon="17.715515">
        <ele>45.3192</ele>
        <time>2014-06-25T18:50:36Z</time>
      </trkpt>
      <trkpt lat="59.9555081" lon="17.7154531">
        <ele>45.7999</ele>
        <time>2014-06-25T18:50:37Z</time>
      </trkpt>
      <trkpt lat="59.9555109" lon="17.7153967">
        <ele>45.7999</ele>
        <time>2014-06-25T18:50:38Z</time>
      </trkpt>
      <trkpt lat="59.955507" lon="17.7153371">
        <ele>45.7999</ele>
        <time>2014-06-25T18:50:39Z</time>
      </trkpt>
      <trkpt lat="59.9554949" lon="17.7152663">
        <ele>45.7999</ele>
        <time>2014-06-25T18:50:40Z</time>
      </trkpt>
      <trkpt lat="59.9554905" lon="17.7152053">
        <ele>44.8386</ele>
        <time>2014-06-25T18:50:41Z</time>
      </trkpt>
      <trkpt lat="59.9554847" lon="17.7151441">
        <ele>44.358</ele>
        <time>2014-06-25T18:50:42Z</time>
      </trkpt>
      <trkpt lat="59.9554785" lon="17.7150968">
        <ele>44.358</ele>
        <time>2014-06-25T18:50:43Z</time>
      </trkpt>
      <trkpt lat="59.9554667" lon="17.7150545">
        <ele>44.8386</ele>
        <time>2014-06-25T18:50:44Z</time>
      </trkpt>
      <trkpt lat="59.9554569" lon="17.7150059">
        <ele>44.358</ele>
        <time>2014-06-25T18:50:45Z</time>
      </trkpt>
      <trkpt lat="59.9554405" lon="17.7149451">
        <ele>44.8386</ele>
        <time>2014-06-25T18:50:46Z</time>
      </trkpt>
      <trkpt lat="59.9554231" lon="17.7148854">
        <ele>44.8386</ele>
        <time>2014-06-25T18:50:47Z</time>
      </trkpt>
      <trkpt lat="59.9554039" lon="17.7148207">
        <ele>45.3192</ele>
        <time>2014-06-25T18:50:48Z</time>
      </trkpt>
      <trkpt lat="59.9553822" lon="17.7147569">
        <ele>45.3192</ele>
        <time>2014-06-25T18:50:49Z</time>
      </trkpt>
      <trkpt lat="59.9553652" lon="17.714697">
        <ele>44.8386</ele>
        <time>2014-06-25T18:50:50Z</time>
      </trkpt>
      <trkpt lat="59.9553586" lon="17.7146471">
        <ele>44.8386</ele>
        <time>2014-06-25T18:50:51Z</time>
      </trkpt>
      <trkpt lat="59.95535" lon="17.7145933">
        <ele>45.3192</ele>
        <time>2014-06-25T18:50:52Z</time>
      </trkpt>
      <trkpt lat="59.9553343" lon="17.7145276">
        <ele>45.3192</ele>
        <time>2014-06-25T18:50:53Z</time>
      </trkpt>
      <trkpt lat="59.9553156" lon="17.7144675">
        <ele>45.7999</ele>
        <time>2014-06-25T18:50:54Z</time>
      </trkpt>
      <trkpt lat="59.9552929" lon="17.714406">
        <ele>46.2806</ele>
        <time>2014-06-25T18:50:55Z</time>
      </trkpt>
      <trkpt lat="59.9552683" lon="17.7143318">
        <ele>45.7999</ele>
        <time>2014-06-25T18:50:56Z</time>
      </trkpt>
      <trkpt lat="59.9552424" lon="17.7142618">
        <ele>45.7999</ele>
        <time>2014-06-25T18:50:57Z</time>
      </trkpt>
      <trkpt lat="59.95523" lon="17.71422">
        <ele>45.7999</ele>
        <time>2014-06-25T18:50:58Z</time>
      </trkpt>
      <trkpt lat="59.9552159" lon="17.714177">
        <ele>44.8386</ele>
        <time>2014-06-25T18:50:59Z</time>
      </trkpt>
      <trkpt lat="59.9551967" lon="17.7141339">
        <ele>44.8386</ele>
        <time>2014-06-25T18:51:00Z</time>
      </trkpt>
      <trkpt lat="59.9551756" lon="17.7141231">
        <ele>43.8773</ele>
        <time>2014-06-25T18:51:01Z</time>
      </trkpt>
      <trkpt lat="59.9551532" lon="17.7141395">
        <ele>43.8773</ele>
        <time>2014-06-25T18:51:02Z</time>
      </trkpt>
      <trkpt lat="59.9551377" lon="17.7141707">
        <ele>42.916</ele>
        <time>2014-06-25T18:51:03Z</time>
      </trkpt>
      <trkpt lat="59.9551231" lon="17.714212">
        <ele>42.4354</ele>
        <time>2014-06-25T18:51:04Z</time>
      </trkpt>
      <trkpt lat="59.9551149" lon="17.7142557">
        <ele>42.4354</ele>
        <time>2014-06-25T18:51:05Z</time>
      </trkpt>
      <trkpt lat="59.9551051" lon="17.7143116">
        <ele>42.4354</ele>
        <time>2014-06-25T18:51:06Z</time>
      </trkpt>
      <trkpt lat="59.9550849" lon="17.7143469">
        <ele>42.4354</ele>
        <time>2014-06-25T18:51:07Z</time>
      </trkpt>
      <trkpt lat="59.9550574" lon="17.7143742">
        <ele>42.916</ele>
        <time>2014-06-25T18:51:08Z</time>
      </trkpt>
      <trkpt lat="59.9550329" lon="17.7144137">
        <ele>42.916</ele>
        <time>2014-06-25T18:51:09Z</time>
      </trkpt>
      <trkpt lat="59.9550092" lon="17.7144488">
        <ele>42.916</ele>
        <time>2014-06-25T18:51:10Z</time>
      </trkpt>
      <trkpt lat="59.9549878" lon="17.7144835">
        <ele>42.916</ele>
        <time>2014-06-25T18:51:11Z</time>
      </trkpt>
      <trkpt lat="59.9549709" lon="17.714522">
        <ele>42.4354</ele>
        <time>2014-06-25T18:51:12Z</time>
      </trkpt>
      <trkpt lat="59.954952" lon="17.714566">
        <ele>42.916</ele>
        <time>2014-06-25T18:51:13Z</time>
      </trkpt>
      <trkpt lat="59.954932" lon="17.7146169">
        <ele>43.3966</ele>
        <time>2014-06-25T18:51:14Z</time>
      </trkpt>
      <trkpt lat="59.954904" lon="17.714667">
        <ele>44.358</ele>
        <time>2014-06-25T18:51:15Z</time>
      </trkpt>
      <trkpt lat="59.954875" lon="17.7147053">
        <ele>44.8386</ele>
        <time>2014-06-25T18:51:16Z</time>
      </trkpt>
      <trkpt lat="59.9548474" lon="17.7147311">
        <ele>44.8386</ele>
        <time>2014-06-25T18:51:17Z</time>
      </trkpt>
      <trkpt lat="59.9548182" lon="17.7147462">
        <ele>44.8386</ele>
        <time>2014-06-25T18:51:18Z</time>
      </trkpt>
      <trkpt lat="59.9547833" lon="17.7147621">
        <ele>44.8386</ele>
        <time>2014-06-25T18:51:19Z</time>
      </trkpt>
      <trkpt lat="59.9547536" lon="17.714774">
        <ele>44.8386</ele>
        <time>2014-06-25T18:51:20Z</time>
      </trkpt>
      <trkpt lat="59.9547217" lon="17.714784">
        <ele>44.8386</ele>
        <time>2014-06-25T18:51:21Z</time>
      </trkpt>
      <trkpt lat="59.954686" lon="17.7147887">
        <ele>44.8386</ele>
        <time>2014-06-25T18:51:22Z</time>
      </trkpt>
      <trkpt lat="59.9546462" lon="17.7147911">
        <ele>45.7999</ele>
        <time>2014-06-25T18:51:23Z</time>
      </trkpt>
      <trkpt lat="59.9546123" lon="17.7148035">
        <ele>46.2806</ele>
        <time>2014-06-25T18:51:24Z</time>
      </trkpt>
      <trkpt lat="59.9545797" lon="17.7148064">
        <ele>46.7612</ele>
        <time>2014-06-25T18:51:25Z</time>
      </trkpt>
      <trkpt lat="59.954546" lon="17.7148151">
        <ele>47.2418</ele>
        <time>2014-06-25T18:51:26Z</time>
      </trkpt>
      <trkpt lat="59.9545073" lon="17.7148108">
        <ele>47.2418</ele>
        <time>2014-06-25T18:51:27Z</time>
      </trkpt>
      <trkpt lat="59.9544677" lon="17.71481">
        <ele>47.2418</ele>
        <time>2014-06-25T18:51:28Z</time>
      </trkpt>
      <trkpt lat="59.9544357" lon="17.71481">
        <ele>47.2418</ele>
        <time>2014-06-25T18:51:29Z</time>
      </trkpt>
      <trkpt lat="59.9544082" lon="17.7148105">
        <ele>47.2418</ele>
        <time>2014-06-25T18:51:30Z</time>
      </trkpt>
      <trkpt lat="59.9543875" lon="17.7148212">
        <ele>46.7612</ele>
        <time>2014-06-25T18:51:31Z</time>
      </trkpt>
      <trkpt lat="59.9543579" lon="17.7148253">
        <ele>46.7612</ele>
        <time>2014-06-25T18:51:32Z</time>
      </trkpt>
      <trkpt lat="59.9543331" lon="17.7148307">
        <ele>47.7225</ele>
        <time>2014-06-25T18:51:33Z</time>
      </trkpt>
      <trkpt lat="59.9543108" lon="17.7148408">
        <ele>48.684</ele>
        <time>2014-06-25T18:51:34Z</time>
      </trkpt>
      <trkpt lat="59.9542884" lon="17.7148461">
        <ele>49.1646</ele>
        <time>2014-06-25T18:51:35Z</time>
      </trkpt>
      <trkpt lat="59.9542677" lon="17.7148488">
        <ele>51.5679</ele>
        <time>2014-06-25T18:51:36Z</time>
      </trkpt>
      <trkpt lat="59.954241" lon="17.7148597">
        <ele>52.5292</ele>
        <time>2014-06-25T18:51:37Z</time>
      </trkpt>
      <trkpt lat="59.9542094" lon="17.7148726">
        <ele>53.4905</ele>
        <time>2014-06-25T18:51:38Z</time>
      </trkpt>
      <trkpt lat="59.9541836" lon="17.7148872">
        <ele>54.9324</ele>
        <time>2014-06-25T18:51:39Z</time>
      </trkpt>
      <trkpt lat="59.954157" lon="17.7148926">
        <ele>55.4131</ele>
        <time>2014-06-25T18:51:40Z</time>
      </trkpt>
      <trkpt lat="59.9541332" lon="17.7149058">
        <ele>56.8551</ele>
        <time>2014-06-25T18:51:41Z</time>
      </trkpt>
      <trkpt lat="59.9541053" lon="17.714929">
        <ele>58.2971</ele>
        <time>2014-06-25T18:51:42Z</time>
      </trkpt>
      <trkpt lat="59.9540835" lon="17.7149444">
        <ele>58.7777</ele>
        <time>2014-06-25T18:51:43Z</time>
      </trkpt>
      <trkpt lat="59.9540629" lon="17.714958">
        <ele>59.2584</ele>
        <time>2014-06-25T18:51:44Z</time>
      </trkpt>
    </trkseg>
  </trk>
</gpx>